Observation data for Fort Lancaster on 11/07/2019      Previous  Date       Current Mesonet Observations  Soil Data  Daily Summary Page  Observations in Plain Language
KLA1 070600Z 14011KT 22/17 A3006 RMK A01 T02190170  RH  074%=      5-min Rain = 0
KLA1 070601Z 15009G14KT 22/17 A3006 RMK A01 T02180170  RH  074%=      5-min Rain = 0
KLA1 070602Z 14010KT 22/17 A3006 RMK A01 T02180170  RH  074%=      5-min Rain = 0
KLA1 070603Z 14011KT 22/17 A3006 RMK A01 T02190170  RH  074%=      5-min Rain = 0
KLA1 070604Z 13007KT 22/17 A3006 RMK A01 T02190170  RH  074%=      5-min Rain = 0
KLA1 070605Z 14008KT 22/17 A3006 RMK A01 T02190170  RH  073%=      5-min Rain = 0
KLA1 070606Z 14007KT 22/17 A3006 RMK A01 T02190170  RH  074%=      5-min Rain = 0
KLA1 070607Z 14009KT 22/17 A3007 RMK A01 T02190170  RH  074%=      5-min Rain = 0
KLA1 070608Z 13009KT 22/17 A3006 RMK A01 T02190170  RH  074%=      5-min Rain = 0
KLA1 070609Z 14007KT 22/17 A3006 RMK A01 T02190170  RH  074%=      5-min Rain = 0
KLA1 070610Z 14007G13KT 22/17 A3006 RMK A01 T02190170  RH  074%=      5-min Rain = 0
KLA1 070611Z 14014KT 22/17 A3006 RMK A01 T02190170  RH  074%=      5-min Rain = 0
KLA1 070612Z 14011KT 22/17 A3006 RMK A01 T02190170  RH  073%=      5-min Rain = 0
KLA1 070613Z 14013KT 22/17 A3006 RMK A01 T02190169  RH  073%=      5-min Rain = 0
KLA1 070614Z 13011KT 22/17 A3006 RMK A01 T02200169  RH  073%=      5-min Rain = 0
KLA1 070615Z 14014KT 22/17 A3006 RMK A01 T02200169  RH  073%=      5-min Rain = 0
KLA1 070616Z 14012KT 22/17 A3006 RMK A01 T02200169  RH  073%=      5-min Rain = 0
KLA1 070617Z 14012KT 22/17 A3006 RMK A01 T02200169  RH  073%=      5-min Rain = 0
KLA1 070618Z 13010G15KT 22/17 A3006 RMK A01 T02200169  RH  073%=      5-min Rain = 0
KLA1 070619Z 14009KT 22/17 A3006 RMK A01 T02200169  RH  073%=      5-min Rain = 0
KLA1 070620Z 14009KT 22/17 A3006 RMK A01 T02200169  RH  073%=      5-min Rain = 0
KLA1 070621Z 14012KT 22/17 A3006 RMK A01 T02200169  RH  073%=      5-min Rain = 0
KLA1 070622Z 13011KT 22/17 A3006 RMK A01 T02200169  RH  073%=      5-min Rain = 0
KLA1 070623Z 14012KT 22/17 A3006 RMK A01 T02200169  RH  073%=      5-min Rain = 0
KLA1 070624Z 15014KT 22/17 A3006 RMK A01 T02200169  RH  073%=      5-min Rain = 0
KLA1 070625Z 14011KT 22/17 A3007 RMK A01 T02200168  RH  073%=      5-min Rain = 0
KLA1 070626Z 14010KT 22/17 A3007 RMK A01 T02200168  RH  073%=      5-min Rain = 0
KLA1 070627Z 14011KT 22/17 A3007 RMK A01 T02200168  RH  073%=      5-min Rain = 0
KLA1 070628Z 15013G19KT 22/17 A3007 RMK A01 T02190168  RH  073%=      5-min Rain = 0
KLA1 070629Z 15014KT 22/17 A3007 RMK A01 T02200168  RH  073%=      5-min Rain = 0
KLA1 070630Z 14008KT 22/17 A3007 RMK A01 T02200168  RH  072%=      5-min Rain = 0
KLA1 070631Z 15012KT 22/17 A3007 RMK A01 T02200168  RH  072%=      5-min Rain = 0
KLA1 070632Z 14011KT 22/17 A3007 RMK A01 T02200168  RH  072%=      5-min Rain = 0
KLA1 070633Z 14010G16KT 22/17 A3007 RMK A01 T02200168  RH  072%=      5-min Rain = 0
KLA1 070634Z 14011G16KT 22/17 A3007 RMK A01 T02200168  RH  072%=      5-min Rain = 0
KLA1 070635Z 14012KT 22/17 A3007 RMK A01 T02200168  RH  073%=      5-min Rain = 0
KLA1 070636Z 14009KT 22/17 A3007 RMK A01 T02200168  RH  073%=      5-min Rain = 0
KLA1 070637Z 14009KT 22/17 A3007 RMK A01 T02200168  RH  073%=      5-min Rain = 0
KLA1 070638Z 15011KT 22/17 A3007 RMK A01 T02200168  RH  073%=      5-min Rain = 0
KLA1 070639Z 15009KT 22/17 A3007 RMK A01 T02200168  RH  073%=      5-min Rain = 0
KLA1 070640Z 14009KT 22/17 A3007 RMK A01 T02190168  RH  073%=      5-min Rain = 0
KLA1 070641Z 14011KT 22/17 A3007 RMK A01 T02190168  RH  073%=      5-min Rain = 0
KLA1 070642Z 15012KT 22/17 A3007 RMK A01 T02190168  RH  073%=      5-min Rain = 0
KLA1 070643Z 14008KT 22/17 A3008 RMK A01 T02190168  RH  073%=      5-min Rain = 0
KLA1 070644Z 15007KT 22/17 A3008 RMK A01 T02190168  RH  073%=      5-min Rain = 0
KLA1 070645Z 15007KT 22/17 A3008 RMK A01 T02190168  RH  073%=      5-min Rain = 0
KLA1 070646Z 14011KT 22/17 A3008 RMK A01 T02190168  RH  073%=      5-min Rain = 0
KLA1 070647Z 15012KT 22/17 A3008 RMK A01 T02190169  RH  073%=      5-min Rain = 0
KLA1 070648Z 16012KT 22/17 A3008 RMK A01 T02190169  RH  073%=      5-min Rain = 0
KLA1 070649Z 14010KT 22/17 A3008 RMK A01 T02190169  RH  073%=      5-min Rain = 0
KLA1 070650Z 15010KT 22/17 A3009 RMK A01 T02190169  RH  073%=      5-min Rain = 0
KLA1 070651Z 15010KT 22/17 A3009 RMK A01 T02190169  RH  073%=      5-min Rain = 0
KLA1 070652Z 14007KT 22/17 A3009 RMK A01 T02190170  RH  074%=      5-min Rain = 0
KLA1 070653Z 15010KT 22/17 A3009 RMK A01 T02180170  RH  074%=      5-min Rain = 0
KLA1 070654Z 16007KT 22/17 A3009 RMK A01 T02180171  RH  075%=      5-min Rain = 0
KLA1 070655Z 16007KT 22/17 A3009 RMK A01 T02170171  RH  075%=      5-min Rain = 0
KLA1 070656Z 18008KT 22/17 A3009 RMK A01 T02170172  RH  076%=      5-min Rain = 0
KLA1 070657Z 17010KT 22/17 A3009 RMK A01 T02160171  RH  076%=      5-min Rain = 0
KLA1 070658Z 17009KT 22/17 A3009 RMK A01 T02160171  RH  076%=      5-min Rain = 0
KLA1 070659Z 18012KT 22/17 A3009 RMK A01 T02160172  RH  076%=      5-min Rain = 0
KLA1 070700Z 17009KT 22/17 A301 RMK A01 T02160172  RH  076%=      5-min Rain = 0
KLA1 070701Z 16010KT 22/17 A301 RMK A01 T02160173  RH  076%=      5-min Rain = 0
KLA1 070702Z 17008G14KT 22/17 A301 RMK A01 T02150173  RH  077%=      5-min Rain = 0
KLA1 070703Z 16010KT 21/17 A301 RMK A01 T02140174  RH  078%=      5-min Rain = 0
KLA1 070704Z 16008KT 21/17 A301 RMK A01 T02140173  RH  078%=      5-min Rain = 0
KLA1 070705Z 16009KT 21/17 A301 RMK A01 T02130174  RH  078%=      5-min Rain = 0
KLA1 070706Z 16010KT 21/18 A301 RMK A01 T02130175  RH  079%=      5-min Rain = 0
KLA1 070707Z 17010KT 21/18 A301 RMK A01 T02110175  RH  080%=      5-min Rain = 0
KLA1 070708Z 20007KT 21/18 A301 RMK A01 T02100176  RH  081%=      5-min Rain = 0
KLA1 070709Z 18008KT 21/18 A301 RMK A01 T02090176  RH  081%=      5-min Rain = 0
KLA1 070710Z 18008KT 21/18 A3011 RMK A01 T02080177  RH  082%=      5-min Rain = 0
KLA1 070711Z 17010KT 21/18 A3011 RMK A01 T02070177  RH  083%=      5-min Rain = 0
KLA1 070712Z 17007KT 21/18 A3011 RMK A01 T02070177  RH  083%=      5-min Rain = 0
KLA1 070713Z 18009KT 21/18 A3011 RMK A01 T02060177  RH  084%=      5-min Rain = 0
KLA1 070714Z 18007KT 21/18 A3011 RMK A01 T02060178  RH  084%=      5-min Rain = 0
KLA1 070715Z 18010KT 21/18 A3011 RMK A01 T02050178  RH  085%=      5-min Rain = 0
KLA1 070716Z 18008KT 20/18 A3011 RMK A01 T02040178  RH  085%=      5-min Rain = 0.01
KLA1 070717Z 19008KT 20/18 A3011 RMK A01 T02040180  RH  086%=      5-min Rain = 0
KLA1 070718Z 19006KT 20/18 A3011 RMK A01 T02030180  RH  087%=      5-min Rain = 0
KLA1 070719Z 20007KT 20/18 A3011 RMK A01 T02020181  RH  088%=      5-min Rain = 0
KLA1 070720Z 21008KT 20/18 A3012 RMK A01 T02010182  RH  089%=      5-min Rain = 0.01
KLA1 070721Z 21010KT 20/19 A3013 RMK A01 T02000186  RH  091%=      5-min Rain = 0
KLA1 070722Z 20020G27KT 20/19 A3013 RMK A01 T01990185  RH  091%=      5-min Rain = 0.02
KLA1 070723Z 20020KT 20/18 A3013 RMK A01 T01970180  RH  090%=      5-min Rain = 0
KLA1 070724Z 20018KT 19/18 A3013 RMK A01 T01940177  RH  090%=      5-min Rain = 0
KLA1 070725Z 21015KT 19/18 A3013 RMK A01 T01920178  RH  091%=      5-min Rain = 0
KLA1 070726Z 21013KT 19/18 A3013 RMK A01 T01900180  RH  094%=      5-min Rain = 0.01
KLA1 070727Z 22011KT 19/18 A3013 RMK A01 T01890183  RH  096%=      5-min Rain = 0
KLA1 070728Z 23011KT 19/18 A3013 RMK A01 T01870184  RH  098%=      5-min Rain = 0.01
KLA1 070729Z 22012KT 19/19 A3013 RMK A01 T01860185  RH  099%=      5-min Rain = 0
KLA1 070730Z 23013G18KT 19/19 A3013 RMK A01 T01850186  RH  100%=      5-min Rain = 0.01
KLA1 070731Z 23010KT 19/19 A3013 RMK A01 T01850185  RH  100%=      5-min Rain = 0
KLA1 070732Z 24011KT 19/19 A3014 RMK A01 T01850185  RH  100%=      5-min Rain = 0.02
KLA1 070733Z 25011KT 19/19 A3014 RMK A01 T01850185  RH  100%=      5-min Rain = 0.01
KLA1 070734Z 25011KT 19/19 A3014 RMK A01 T01850185  RH  100%=      5-min Rain = 0.02
KLA1 070735Z 26009G14KT 19/19 A3014 RMK A01 T01850185  RH  100%=      5-min Rain = 0.01
KLA1 070736Z 26014KT 19/19 A3014 RMK A01 T01850185  RH  100%=      5-min Rain = 0.01
KLA1 070737Z 27016G21KT 19/19 A3015 RMK A01 T01860186  RH  100%=      5-min Rain = 0
KLA1 070738Z 27012G17KT 19/19 A3015 RMK A01 T01860186  RH  100%=      5-min Rain = 0.01
KLA1 070739Z 28018KT 19/19 A3015 RMK A01 T01860186  RH  100%=      5-min Rain = 0.01
KLA1 070740Z 28018G24KT 18/18 A3015 RMK A01 T01840184  RH  100%=      5-min Rain = 0
KLA1 070741Z 28016KT 18/18 A3015 RMK A01 T01830183  RH  100%=      5-min Rain = 0.02
KLA1 070742Z 29016KT 18/18 A3015 RMK A01 T01820182  RH  100%=      5-min Rain = 0
KLA1 070743Z 29016G21KT 18/18 A3015 RMK A01 T01810181  RH  100%=      5-min Rain = 0.01
KLA1 070744Z 30015KT 18/18 A3015 RMK A01 T01800180  RH  100%=      5-min Rain = 0.01
KLA1 070745Z 30013G19KT 18/18 A3014 RMK A01 T01800180  RH  100%=      5-min Rain = 0
KLA1 070746Z 31009KT 18/18 A3014 RMK A01 T01800180  RH  100%=      5-min Rain = 0.01
KLA1 070747Z 31009KT 18/18 A3014 RMK A01 T01790179  RH  100%=      5-min Rain = 0.02
KLA1 070748Z 31007KT 18/18 A3014 RMK A01 T01790179  RH  100%=      5-min Rain = 0.01
KLA1 070749Z 29006KT 18/18 A3014 RMK A01 T01780178  RH  100%=      5-min Rain = 0
KLA1 070750Z 30006KT 18/18 A3014 RMK A01 T01780178  RH  100%=      5-min Rain = 0
KLA1 070751Z 30007KT 18/18 A3014 RMK A01 T01780178  RH  100%=      5-min Rain = 0.01
KLA1 070752Z 31006KT 18/18 A3014 RMK A01 T01780178  RH  100%=      5-min Rain = 0
KLA1 070753Z 34004KT 18/18 A3014 RMK A01 T01770178  RH  100%=      5-min Rain = 0.01
KLA1 070754Z 32006KT 18/18 A3014 RMK A01 T01770177  RH  100%=      5-min Rain = 0
KLA1 070755Z 33008KT 18/18 A3014 RMK A01 T01770177  RH  100%=      5-min Rain = 0
KLA1 070756Z 33006KT 18/18 A3014 RMK A01 T01770177  RH  100%=      5-min Rain = 0.02
KLA1 070757Z 34004KT 18/18 A3014 RMK A01 T01760176  RH  100%=      5-min Rain = 0
KLA1 070758Z 36005KT 18/18 A3013 RMK A01 T01760176  RH  100%=      5-min Rain = 0
KLA1 070759Z 01006KT 18/18 A3013 RMK A01 T01760176  RH  100%=      5-min Rain = 0.01
KLA1 070800Z 00007KT 18/18 A3013 RMK A01 T01760177  RH  100%=      5-min Rain = 0
KLA1 070801Z 00007KT 18/18 A3013 RMK A01 T01770177  RH  100%=      5-min Rain = 0
KLA1 070802Z 01006KT 18/18 A3013 RMK A01 T01780178  RH  100%=      5-min Rain = 0.01
KLA1 070803Z 01006KT 18/18 A3013 RMK A01 T01780178  RH  100%=      5-min Rain = 0
KLA1 070804Z 00009KT 18/18 A3013 RMK A01 T01780178  RH  100%=      5-min Rain = 0
KLA1 070805Z 01006KT 18/18 A3013 RMK A01 T01770177  RH  100%=      5-min Rain = 0.01
KLA1 070806Z 01006KT 18/18 A3013 RMK A01 T01780178  RH  100%=      5-min Rain = 0
KLA1 070807Z 01006KT 18/18 A3012 RMK A01 T01770178  RH  100%=      5-min Rain = 0
KLA1 070808Z 01007KT 18/18 A3012 RMK A01 T01770177  RH  100%=      5-min Rain = 0
KLA1 070809Z 02006KT 18/18 A3012 RMK A01 T01770177  RH  100%=      5-min Rain = 0
KLA1 070810Z 01006KT 18/18 A3012 RMK A01 T01770177  RH  100%=      5-min Rain = 0
KLA1 070811Z 01007KT 18/18 A3011 RMK A01 T01770177  RH  100%=      5-min Rain = 0.01
KLA1 070812Z 01008KT 18/18 A3011 RMK A01 T01770177  RH  100%=      5-min Rain = 0
KLA1 070813Z 01006KT 18/18 A3011 RMK A01 T01760176  RH  100%=      5-min Rain = 0
KLA1 070814Z 01007KT 18/18 A3011 RMK A01 T01770177  RH  100%=      5-min Rain = 0
KLA1 070815Z 01006KT 18/18 A3011 RMK A01 T01760177  RH  100%=      5-min Rain = 0
KLA1 070816Z 02007KT 18/18 A3011 RMK A01 T01770177  RH  100%=      5-min Rain = 0
KLA1 070817Z 03005KT 18/18 A301 RMK A01 T01770177  RH  100%=      5-min Rain = 0.01
KLA1 070818Z 02005KT 18/18 A301 RMK A01 T01760177  RH  100%=      5-min Rain = 0
KLA1 070819Z 02005KT 18/18 A301 RMK A01 T01760177  RH  100%=      5-min Rain = 0
KLA1 070820Z 02004KT 18/18 A301 RMK A01 T01760176  RH  100%=      5-min Rain = 0
KLA1 070821Z 04006KT 18/18 A301 RMK A01 T01760176  RH  100%=      5-min Rain = 0
KLA1 070822Z 06004KT 18/18 A3009 RMK A01 T01770177  RH  100%=      5-min Rain = 0
KLA1 070823Z 07004KT 18/18 A3009 RMK A01 T01770177  RH  100%=      5-min Rain = 0
KLA1 070824Z 09004KT 18/18 A3009 RMK A01 T01770177  RH  100%=      5-min Rain = 0
KLA1 070825Z 08006KT 18/18 A3009 RMK A01 T01760176  RH  100%=      5-min Rain = 0
KLA1 070826Z 08007KT 18/18 A3008 RMK A01 T01760177  RH  100%=      5-min Rain = 0
KLA1 070827Z 07009KT 18/18 A3007 RMK A01 T01770177  RH  100%=      5-min Rain = 0
KLA1 070828Z 07009KT 18/18 A3006 RMK A01 T01760176  RH  100%=      5-min Rain = 0
KLA1 070829Z 07010KT 18/18 A3005 RMK A01 T01760177  RH  100%=      5-min Rain = 0
KLA1 070830Z 07009KT 18/18 A3005 RMK A01 T01760177  RH  100%=      5-min Rain = 0
KLA1 070831Z 07009KT 18/18 A3005 RMK A01 T01760176  RH  100%=      5-min Rain = 0
KLA1 070832Z 07009KT 18/18 A3005 RMK A01 T01770177  RH  100%=      5-min Rain = 0
KLA1 070833Z 08009KT 18/18 A3006 RMK A01 T01770177  RH  100%=      5-min Rain = 0
KLA1 070834Z 07006KT 18/18 A3006 RMK A01 T01770177  RH  100%=      5-min Rain = 0
KLA1 070835Z 07002KT 18/18 A3007 RMK A01 T01770177  RH  100%=      5-min Rain = 0.01
KLA1 070836Z 02002KT 18/18 A3007 RMK A01 T01770177  RH  100%=      5-min Rain = 0
KLA1 070837Z 00002KT 18/18 A3007 RMK A01 T01770177  RH  100%=      5-min Rain = 0
KLA1 070838Z 34003KT 18/18 A3007 RMK A01 T01770177  RH  100%=      5-min Rain = 0
KLA1 070839Z 01002KT 18/18 A3007 RMK A01 T01770177  RH  100%=      5-min Rain = 0
KLA1 070840Z 03002KT 18/18 A3007 RMK A01 T01770177  RH  100%=      5-min Rain = 0
KLA1 070841Z 03002KT 18/18 A3007 RMK A01 T01770177  RH  100%=      5-min Rain = 0
KLA1 070842Z 02003KT 18/18 A3007 RMK A01 T01770177  RH  100%=      5-min Rain = 0
KLA1 070843Z 35003KT 18/18 A3006 RMK A01 T01770177  RH  100%=      5-min Rain = 0
KLA1 070844Z 35003KT 18/18 A3006 RMK A01 T01770178  RH  100%=      5-min Rain = 0
KLA1 070845Z 33002KT 18/18 A3006 RMK A01 T01770178  RH  100%=      5-min Rain = 0
KLA1 070846Z 35004KT 18/18 A3006 RMK A01 T01770178  RH  100%=      5-min Rain = 0
KLA1 070847Z 34002KT 18/18 A3006 RMK A01 T01770177  RH  100%=      5-min Rain = 0
KLA1 070848Z 00003KT 18/18 A3006 RMK A01 T01770177  RH  100%=      5-min Rain = 0
KLA1 070849Z 35002KT 18/18 A3006 RMK A01 T01770176  RH  099%=      5-min Rain = 0
KLA1 070850Z 36003KT 18/17 A3006 RMK A01 T01780174  RH  098%=      5-min Rain = 0
KLA1 070851Z 36004KT 18/17 A3006 RMK A01 T01780173  RH  097%=      5-min Rain = 0
KLA1 070852Z 35004KT 18/17 A3006 RMK A01 T01790174  RH  097%=      5-min Rain = 0
KLA1 070853Z 00004KT 18/18 A3006 RMK A01 T01790175  RH  097%=      5-min Rain = 0
KLA1 070854Z 01003KT 18/17 A3006 RMK A01 T01790174  RH  097%=      5-min Rain = 0
KLA1 070855Z 02004KT 18/17 A3006 RMK A01 T01790174  RH  097%=      5-min Rain = 0
KLA1 070856Z 01005KT 18/17 A3006 RMK A01 T01790174  RH  097%=      5-min Rain = 0
KLA1 070857Z 00004KT 18/17 A3006 RMK A01 T01790173  RH  096%=      5-min Rain = 0
KLA1 070858Z 00003KT 18/17 A3006 RMK A01 T01790174  RH  097%=      5-min Rain = 0
KLA1 070859Z 33004KT 18/18 A3006 RMK A01 T01790175  RH  098%=      5-min Rain = 0
KLA1 070900Z 32004KT 18/17 A3005 RMK A01 T01790174  RH  097%=      5-min Rain = 0
KLA1 070901Z 32003KT 18/17 A3005 RMK A01 T01790172  RH  096%=      5-min Rain = 0
KLA1 070902Z 30001KT 18/17 A3005 RMK A01 T01790172  RH  095%=      5-min Rain = 0
KLA1 070903Z 36000KT 18/17 A3005 RMK A01 T01800173  RH  096%=      5-min Rain = 0
KLA1 070904Z 17001KT 18/17 A3005 RMK A01 T01800173  RH  096%=      5-min Rain = 0
KLA1 070905Z 16002KT 18/17 A3005 RMK A01 T01800173  RH  096%=      5-min Rain = 0
KLA1 070906Z 18003KT 18/17 A3005 RMK A01 T01790173  RH  096%=      5-min Rain = 0
KLA1 070907Z 17002KT 18/17 A3005 RMK A01 T01790173  RH  096%=      5-min Rain = 0
KLA1 070908Z 16003KT 18/17 A3005 RMK A01 T01790173  RH  097%=      5-min Rain = 0
KLA1 070909Z 17003KT 18/17 A3005 RMK A01 T01790174  RH  097%=      5-min Rain = 0
KLA1 070910Z 17002KT 18/18 A3005 RMK A01 T01780175  RH  098%=      5-min Rain = 0
KLA1 070911Z 17002KT 18/18 A3005 RMK A01 T01780176  RH  099%=      5-min Rain = 0
KLA1 070912Z 18002KT 18/18 A3005 RMK A01 T01770177  RH  100%=      5-min Rain = 0
KLA1 070913Z 20002KT 18/18 A3005 RMK A01 T01770177  RH  100%=      5-min Rain = 0
KLA1 070914Z 21003KT 18/18 A3005 RMK A01 T01760176  RH  100%=      5-min Rain = 0
KLA1 070915Z 21004KT 18/18 A3006 RMK A01 T01760176  RH  100%=      5-min Rain = 0
KLA1 070916Z 19004KT 18/18 A3006 RMK A01 T01760176  RH  100%=      5-min Rain = 0
KLA1 070917Z 17005KT 18/18 A3006 RMK A01 T01750176  RH  100%=      5-min Rain = 0
KLA1 070918Z 15004KT 18/18 A3006 RMK A01 T01750175  RH  100%=      5-min Rain = 0
KLA1 070919Z 14004KT 17/17 A3006 RMK A01 T01740174  RH  100%=      5-min Rain = 0
KLA1 070920Z 14005KT 17/17 A3006 RMK A01 T01740174  RH  100%=      5-min Rain = 0
KLA1 070921Z 13007KT 17/18 A3006 RMK A01 T01740175  RH  100%=      5-min Rain = 0
KLA1 070922Z 13007KT 17/17 A3006 RMK A01 T01740174  RH  100%=      5-min Rain = 0
KLA1 070923Z 13008KT 17/17 A3007 RMK A01 T01740174  RH  100%=      5-min Rain = 0
KLA1 070924Z 12008KT 17/17 A3007 RMK A01 T01740174  RH  100%=      5-min Rain = 0
KLA1 070925Z 12007KT 17/17 A3007 RMK A01 T01740174  RH  100%=      5-min Rain = 0
KLA1 070926Z 12006KT 17/17 A3007 RMK A01 T01740174  RH  100%=      5-min Rain = 0
KLA1 070927Z 12006KT 17/17 A3007 RMK A01 T01740174  RH  100%=      5-min Rain = 0
KLA1 070928Z 12006KT 17/17 A3007 RMK A01 T01740174  RH  100%=      5-min Rain = 0
KLA1 070929Z 12006KT 17/17 A3007 RMK A01 T01740174  RH  100%=      5-min Rain = 0
KLA1 070930Z 12007KT 17/17 A3007 RMK A01 T01740174  RH  100%=      5-min Rain = 0
KLA1 070931Z 12006KT 17/17 A3007 RMK A01 T01740174  RH  100%=      5-min Rain = 0
KLA1 070932Z 12008KT 17/17 A3007 RMK A01 T01740174  RH  100%=      5-min Rain = 0
KLA1 070933Z 12006KT 17/17 A3007 RMK A01 T01740174  RH  100%=      5-min Rain = 0
KLA1 070934Z 12006KT 17/17 A3007 RMK A01 T01740174  RH  100%=      5-min Rain = 0
KLA1 070935Z 12007KT 17/17 A3007 RMK A01 T01740174  RH  100%=      5-min Rain = 0
KLA1 070936Z 12008KT 17/17 A3007 RMK A01 T01740174  RH  100%=      5-min Rain = 0
KLA1 070937Z 13006KT 17/17 A3007 RMK A01 T01740174  RH  100%=      5-min Rain = 0
KLA1 070938Z 12005KT 17/17 A3007 RMK A01 T01740174  RH  100%=      5-min Rain = 0
KLA1 070939Z 12004KT 17/17 A3007 RMK A01 T01740174  RH  100%=      5-min Rain = 0
KLA1 070940Z 12004KT 17/17 A3007 RMK A01 T01740174  RH  100%=      5-min Rain = 0
KLA1 070941Z 13004KT 17/17 A3008 RMK A01 T01740174  RH  100%=      5-min Rain = 0
KLA1 070942Z 13005KT 17/17 A3008 RMK A01 T01730173  RH  100%=      5-min Rain = 0
KLA1 070943Z 13004KT 17/17 A3008 RMK A01 T01730173  RH  100%=      5-min Rain = 0
KLA1 070944Z 13004KT 17/17 A3008 RMK A01 T01730173  RH  100%=      5-min Rain = 0
KLA1 070945Z 13004KT 17/17 A3008 RMK A01 T01730173  RH  100%=      5-min Rain = 0
KLA1 070946Z 12004KT 17/17 A3008 RMK A01 T01730173  RH  100%=      5-min Rain = 0
KLA1 070947Z 12004KT 17/17 A3008 RMK A01 T01720172  RH  100%=      5-min Rain = 0
KLA1 070948Z 12003KT 17/17 A3008 RMK A01 T01720173  RH  100%=      5-min Rain = 0
KLA1 070949Z 12003KT 17/17 A3008 RMK A01 T01720173  RH  100%=      5-min Rain = 0
KLA1 070950Z 12003KT 17/17 A3008 RMK A01 T01720172  RH  100%=      5-min Rain = 0
KLA1 070951Z 12004KT 17/17 A3008 RMK A01 T01720172  RH  100%=      5-min Rain = 0
KLA1 070952Z 11003KT 17/17 A3008 RMK A01 T01720172  RH  100%=      5-min Rain = 0
KLA1 070953Z 11003KT 17/17 A3008 RMK A01 T01720172  RH  100%=      5-min Rain = 0
KLA1 070954Z 11004KT 17/17 A3008 RMK A01 T01720172  RH  100%=      5-min Rain = 0
KLA1 070955Z 11005KT 17/17 A3008 RMK A01 T01720172  RH  100%=      5-min Rain = 0
KLA1 070956Z 12004KT 17/17 A3007 RMK A01 T01720172  RH  100%=      5-min Rain = 0
KLA1 070957Z 13004KT 17/17 A3007 RMK A01 T01720172  RH  100%=      5-min Rain = 0
KLA1 070958Z 13005KT 17/17 A3007 RMK A01 T01720172  RH  100%=      5-min Rain = 0
KLA1 070959Z 13005KT 17/17 A3007 RMK A01 T01720172  RH  100%=      5-min Rain = 0
KLA1 071000Z 12005KT 17/17 A3008 RMK A01 T01720172  RH  100%=      5-min Rain = 0
KLA1 071001Z 12005KT 17/17 A3008 RMK A01 T01720172  RH  100%=      5-min Rain = 0
KLA1 071002Z 12004KT 17/17 A3008 RMK A01 T01720172  RH  100%=      5-min Rain = 0
KLA1 071003Z 12004KT 17/17 A3008 RMK A01 T01720172  RH  100%=      5-min Rain = 0
KLA1 071004Z 12004KT 17/17 A3007 RMK A01 T01720172  RH  100%=      5-min Rain = 0
KLA1 071005Z 12004KT 17/17 A3007 RMK A01 T01720172  RH  100%=      5-min Rain = 0
KLA1 071006Z 12004KT 17/17 A3007 RMK A01 T01720172  RH  100%=      5-min Rain = 0
KLA1 071007Z 12004KT 17/17 A3007 RMK A01 T01720172  RH  100%=      5-min Rain = 0
KLA1 071008Z 12005KT 17/17 A3007 RMK A01 T01720172  RH  100%=      5-min Rain = 0
KLA1 071009Z 12004KT 17/17 A3007 RMK A01 T01720172  RH  100%=      5-min Rain = 0
KLA1 071010Z 12004KT 17/17 A3007 RMK A01 T01720172  RH  100%=      5-min Rain = 0
KLA1 071011Z 12005KT 17/17 A3007 RMK A01 T01720172  RH  100%=      5-min Rain = 0
KLA1 071012Z 12005KT 17/17 A3007 RMK A01 T01720172  RH  100%=      5-min Rain = 0
KLA1 071013Z 12005KT 17/17 A3008 RMK A01 T01720172  RH  100%=      5-min Rain = 0
KLA1 071014Z 12006KT 17/17 A3008 RMK A01 T01720172  RH  100%=      5-min Rain = 0
KLA1 071015Z 11005KT 17/17 A3008 RMK A01 T01730173  RH  100%=      5-min Rain = 0
KLA1 071016Z 11006KT 17/17 A3008 RMK A01 T01730173  RH  100%=      5-min Rain = 0
KLA1 071017Z 11005KT 17/17 A3008 RMK A01 T01730173  RH  100%=      5-min Rain = 0
KLA1 071018Z 11005KT 17/17 A3008 RMK A01 T01740174  RH  100%=      5-min Rain = 0
KLA1 071019Z 11006KT 17/17 A3008 RMK A01 T01740174  RH  100%=      5-min Rain = 0
KLA1 071020Z 11005KT 17/17 A3008 RMK A01 T01740174  RH  100%=      5-min Rain = 0
KLA1 071021Z 10004KT 18/18 A3008 RMK A01 T01750175  RH  100%=      5-min Rain = 0
KLA1 071022Z 12004KT 18/18 A3008 RMK A01 T01750175  RH  100%=      5-min Rain = 0
KLA1 071023Z 11004KT 18/18 A3008 RMK A01 T01760176  RH  100%=      5-min Rain = 0
KLA1 071024Z 11004KT 18/18 A3008 RMK A01 T01750176  RH  100%=      5-min Rain = 0
KLA1 071025Z 10004KT 18/18 A3008 RMK A01 T01760176  RH  100%=      5-min Rain = 0
KLA1 071026Z 10004KT 18/18 A3008 RMK A01 T01760176  RH  100%=      5-min Rain = 0
KLA1 071027Z 12003KT 18/18 A3008 RMK A01 T01760176  RH  100%=      5-min Rain = 0
KLA1 071028Z 12004KT 18/18 A3008 RMK A01 T01760176  RH  100%=      5-min Rain = 0
KLA1 071029Z 12005KT 18/18 A3008 RMK A01 T01760176  RH  100%=      5-min Rain = 0
KLA1 071030Z 12006KT 18/18 A3008 RMK A01 T01760176  RH  100%=      5-min Rain = 0
KLA1 071031Z 12006KT 18/18 A3009 RMK A01 T01760176  RH  100%=      5-min Rain = 0
KLA1 071032Z 11005KT 18/18 A3009 RMK A01 T01760176  RH  100%=      5-min Rain = 0
KLA1 071033Z 11006KT 18/18 A3009 RMK A01 T01760176  RH  100%=      5-min Rain = 0
KLA1 071034Z 11006KT 18/18 A3009 RMK A01 T01760176  RH  100%=      5-min Rain = 0
KLA1 071035Z 12005KT 18/18 A3009 RMK A01 T01760176  RH  100%=      5-min Rain = 0
KLA1 071036Z 12005KT 18/18 A3009 RMK A01 T01760176  RH  100%=      5-min Rain = 0
KLA1 071037Z 12006KT 18/18 A3009 RMK A01 T01760176  RH  100%=      5-min Rain = 0
KLA1 071038Z 12006KT 18/18 A3009 RMK A01 T01760176  RH  100%=      5-min Rain = 0
KLA1 071039Z 12006KT 18/18 A3009 RMK A01 T01760176  RH  100%=      5-min Rain = 0
KLA1 071040Z 12006KT 18/18 A3009 RMK A01 T01760176  RH  100%=      5-min Rain = 0
KLA1 071041Z 12006KT 18/18 A3009 RMK A01 T01760176  RH  100%=      5-min Rain = 0
KLA1 071042Z 12005KT 18/18 A3009 RMK A01 T01760176  RH  100%=      5-min Rain = 0
KLA1 071043Z 12005KT 18/18 A3009 RMK A01 T01760176  RH  100%=      5-min Rain = 0
KLA1 071044Z 12005KT 18/18 A3009 RMK A01 T01760176  RH  100%=      5-min Rain = 0
KLA1 071045Z 12005KT 18/18 A3009 RMK A01 T01760176  RH  100%=      5-min Rain = 0
KLA1 071046Z 12006KT 18/18 A3009 RMK A01 T01760176  RH  100%=      5-min Rain = 0
KLA1 071047Z 12004KT 18/18 A3009 RMK A01 T01760176  RH  100%=      5-min Rain = 0
KLA1 071048Z 12004KT 18/18 A3009 RMK A01 T01760176  RH  100%=      5-min Rain = 0
KLA1 071049Z 12004KT 18/18 A3009 RMK A01 T01760176  RH  100%=      5-min Rain = 0
KLA1 071050Z 11005KT 18/18 A3009 RMK A01 T01760176  RH  100%=      5-min Rain = 0
KLA1 071051Z 12006KT 18/18 A3009 RMK A01 T01760176  RH  100%=      5-min Rain = 0
KLA1 071052Z 12006KT 18/18 A3009 RMK A01 T01760176  RH  100%=      5-min Rain = 0
KLA1 071053Z 12006KT 18/18 A3009 RMK A01 T01760176  RH  100%=      5-min Rain = 0
KLA1 071054Z 11006KT 18/18 A3009 RMK A01 T01760176  RH  100%=      5-min Rain = 0
KLA1 071055Z 11006KT 18/18 A3009 RMK A01 T01760176  RH  100%=      5-min Rain = 0
KLA1 071056Z 11006KT 18/18 A3009 RMK A01 T01760176  RH  100%=      5-min Rain = 0
KLA1 071057Z 12006KT 18/18 A3009 RMK A01 T01760176  RH  100%=      5-min Rain = 0
KLA1 071058Z 11006KT 18/18 A3009 RMK A01 T01760176  RH  100%=      5-min Rain = 0
KLA1 071059Z 11006KT 18/18 A3009 RMK A01 T01760177  RH  100%=      5-min Rain = 0
KLA1 071100Z 12006KT 18/18 A3009 RMK A01 T01760177  RH  100%=      5-min Rain = 0
KLA1 071101Z 12006KT 18/18 A3009 RMK A01 T01770177  RH  100%=      5-min Rain = 0
KLA1 071102Z 12006KT 18/18 A3009 RMK A01 T01770177  RH  100%=      5-min Rain = 0
KLA1 071103Z 12006KT 18/18 A3009 RMK A01 T01760176  RH  100%=      5-min Rain = 0
KLA1 071104Z 11007KT 18/18 A3009 RMK A01 T01760176  RH  100%=      5-min Rain = 0
KLA1 071105Z 12005KT 18/18 A3009 RMK A01 T01760176  RH  100%=      5-min Rain = 0
KLA1 071106Z 12005KT 18/18 A3009 RMK A01 T01760176  RH  100%=      5-min Rain = 0
KLA1 071107Z 10004KT 18/18 A3009 RMK A01 T01760176  RH  100%=      5-min Rain = 0
KLA1 071108Z 11005KT 18/18 A3009 RMK A01 T01760176  RH  100%=      5-min Rain = 0
KLA1 071109Z 10004KT 18/18 A3009 RMK A01 T01760176  RH  100%=      5-min Rain = 0
KLA1 071110Z 10004KT 18/18 A3009 RMK A01 T01760176  RH  100%=      5-min Rain = 0
KLA1 071111Z 10004KT 18/18 A3009 RMK A01 T01760176  RH  100%=      5-min Rain = 0
KLA1 071112Z 09004KT 18/18 A3009 RMK A01 T01760176  RH  100%=      5-min Rain = 0
KLA1 071113Z 07003KT 18/18 A3009 RMK A01 T01760176  RH  100%=      5-min Rain = 0
KLA1 071114Z 07003KT 18/18 A3009 RMK A01 T01770177  RH  100%=      5-min Rain = 0
KLA1 071115Z 06002KT 18/18 A3009 RMK A01 T01760176  RH  100%=      5-min Rain = 0
KLA1 071116Z 05003KT 18/18 A3009 RMK A01 T01770177  RH  100%=      5-min Rain = 0
KLA1 071117Z 04002KT 18/18 A301 RMK A01 T01770177  RH  100%=      5-min Rain = 0
KLA1 071118Z 02002KT 18/18 A301 RMK A01 T01770177  RH  100%=      5-min Rain = 0
KLA1 071119Z 35003KT 18/18 A301 RMK A01 T01770177  RH  100%=      5-min Rain = 0
KLA1 071120Z 34002KT 18/18 A301 RMK A01 T01770177  RH  100%=      5-min Rain = 0
KLA1 071121Z 31003KT 18/18 A301 RMK A01 T01770177  RH  100%=      5-min Rain = 0
KLA1 071122Z 31002KT 18/18 A301 RMK A01 T01770177  RH  100%=      5-min Rain = 0
KLA1 071123Z 30002KT 18/18 A301 RMK A01 T01770177  RH  100%=      5-min Rain = 0
KLA1 071124Z 30003KT 18/18 A301 RMK A01 T01770177  RH  100%=      5-min Rain = 0
KLA1 071125Z 30003KT 18/18 A301 RMK A01 T01770177  RH  100%=      5-min Rain = 0
KLA1 071126Z 31002KT 18/18 A301 RMK A01 T01770177  RH  100%=      5-min Rain = 0
KLA1 071127Z 31003KT 18/18 A301 RMK A01 T01770177  RH  100%=      5-min Rain = 0
KLA1 071128Z 31003KT 18/18 A301 RMK A01 T01770177  RH  100%=      5-min Rain = 0
KLA1 071129Z 30003KT 18/18 A301 RMK A01 T01770177  RH  100%=      5-min Rain = 0
KLA1 071130Z 31003KT 18/18 A3011 RMK A01 T01770177  RH  100%=      5-min Rain = 0
KLA1 071131Z 31004KT 18/18 A3011 RMK A01 T01770177  RH  100%=      5-min Rain = 0
KLA1 071132Z 31003KT 18/18 A3011 RMK A01 T01770177  RH  100%=      5-min Rain = 0
KLA1 071133Z 31004KT 18/18 A3011 RMK A01 T01770177  RH  100%=      5-min Rain = 0
KLA1 071134Z 31005KT 18/18 A3011 RMK A01 T01760176  RH  100%=      5-min Rain = 0
KLA1 071135Z 32005KT 18/18 A3011 RMK A01 T01760176  RH  100%=      5-min Rain = 0
KLA1 071136Z 33005KT 18/18 A3011 RMK A01 T01760176  RH  100%=      5-min Rain = 0
KLA1 071137Z 32004KT 18/18 A3011 RMK A01 T01760176  RH  100%=      5-min Rain = 0
KLA1 071138Z 32004KT 18/18 A3011 RMK A01 T01760176  RH  100%=      5-min Rain = 0
KLA1 071139Z 33004KT 18/18 A3011 RMK A01 T01760176  RH  100%=      5-min Rain = 0
KLA1 071140Z 33003KT 18/18 A3012 RMK A01 T01760176  RH  100%=      5-min Rain = 0
KLA1 071141Z 34005KT 18/18 A3012 RMK A01 T01760176  RH  100%=      5-min Rain = 0
KLA1 071142Z 34004KT 18/18 A3012 RMK A01 T01760176  RH  100%=      5-min Rain = 0
KLA1 071143Z 33005KT 18/18 A3012 RMK A01 T01760176  RH  100%=      5-min Rain = 0
KLA1 071144Z 34005KT 18/18 A3012 RMK A01 T01760176  RH  100%=      5-min Rain = 0
KLA1 071145Z 34005KT 18/18 A3012 RMK A01 T01760176  RH  100%=      5-min Rain = 0
KLA1 071146Z 34007KT 18/18 A3012 RMK A01 T01760176  RH  100%=      5-min Rain = 0
KLA1 071147Z 34006KT 18/18 A3012 RMK A01 T01760176  RH  100%=      5-min Rain = 0
KLA1 071148Z 34005KT 18/18 A3012 RMK A01 T01760176  RH  100%=      5-min Rain = 0
KLA1 071149Z 34006KT 18/18 A3012 RMK A01 T01760176  RH  100%=      5-min Rain = 0
KLA1 071150Z 34005KT 18/18 A3012 RMK A01 T01760176  RH  100%=      5-min Rain = 0
KLA1 071151Z 34006KT 18/18 A3012 RMK A01 T01760176  RH  100%=      5-min Rain = 0
KLA1 071152Z 33007KT 18/18 A3012 RMK A01 T01760176  RH  100%=      5-min Rain = 0
KLA1 071153Z 34006KT 18/18 A3012 RMK A01 T01770177  RH  100%=      5-min Rain = 0
KLA1 071154Z 34006KT 18/18 A3012 RMK A01 T01770177  RH  100%=      5-min Rain = 0
KLA1 071155Z 34006KT 18/18 A3012 RMK A01 T01780178  RH  100%=      5-min Rain = 0
KLA1 071156Z 35004KT 18/18 A3012 RMK A01 T01780178  RH  100%=      5-min Rain = 0
KLA1 071157Z 35005KT 18/18 A3012 RMK A01 T01780178  RH  100%=      5-min Rain = 0
KLA1 071158Z 35004KT 18/18 A3012 RMK A01 T01780178  RH  100%=      5-min Rain = 0
KLA1 071159Z 35003KT 18/18 A3012 RMK A01 T01780179  RH  100%=      5-min Rain = 0
KLA1 071200Z 00003KT 18/18 A3012 RMK A01 T01780178  RH  100%=      5-min Rain = 0
KLA1 071201Z 36004KT 18/18 A3013 RMK A01 T01780179  RH  100%=      5-min Rain = 0
KLA1 071202Z 00004KT 18/18 A3013 RMK A01 T01790179  RH  100%=      5-min Rain = 0
KLA1 071203Z 02004KT 18/18 A3013 RMK A01 T01780179  RH  100%=      5-min Rain = 0
KLA1 071204Z 01003KT 18/18 A3013 RMK A01 T01780178  RH  100%=      5-min Rain = 0
KLA1 071205Z 02003KT 18/18 A3013 RMK A01 T01790179  RH  100%=      5-min Rain = 0
KLA1 071206Z 02005KT 18/18 A3013 RMK A01 T01780178  RH  100%=      5-min Rain = 0
KLA1 071207Z 01003KT 18/18 A3013 RMK A01 T01780178  RH  100%=      5-min Rain = 0
KLA1 071208Z 02004KT 18/18 A3013 RMK A01 T01780178  RH  100%=      5-min Rain = 0
KLA1 071209Z 03004KT 18/18 A3013 RMK A01 T01780178  RH  100%=      5-min Rain = 0
KLA1 071210Z 04006KT 18/18 A3013 RMK A01 T01780178  RH  100%=      5-min Rain = 0
KLA1 071211Z 02006KT 18/18 A3013 RMK A01 T01780178  RH  100%=      5-min Rain = 0
KLA1 071212Z 02005KT 18/18 A3013 RMK A01 T01780178  RH  100%=      5-min Rain = 0
KLA1 071213Z 02004KT 18/18 A3013 RMK A01 T01780178  RH  100%=      5-min Rain = 0
KLA1 071214Z 02006KT 18/18 A3013 RMK A01 T01780178  RH  100%=      5-min Rain = 0
KLA1 071215Z 03007KT 18/18 A3013 RMK A01 T01780178  RH  100%=      5-min Rain = 0
KLA1 071216Z 02008KT 18/18 A3013 RMK A01 T01780178  RH  100%=      5-min Rain = 0
KLA1 071217Z 02006KT 18/18 A3013 RMK A01 T01780178  RH  099%=      5-min Rain = 0
KLA1 071218Z 02007KT 18/18 A3013 RMK A01 T01780177  RH  099%=      5-min Rain = 0
KLA1 071219Z 02008KT 18/18 A3013 RMK A01 T01790176  RH  098%=      5-min Rain = 0
KLA1 071220Z 02006KT 18/18 A3013 RMK A01 T01790176  RH  098%=      5-min Rain = 0
KLA1 071221Z 02007KT 18/18 A3013 RMK A01 T01790176  RH  098%=      5-min Rain = 0
KLA1 071222Z 02007KT 18/18 A3013 RMK A01 T01800176  RH  098%=      5-min Rain = 0
KLA1 071223Z 03006KT 18/18 A3014 RMK A01 T01800176  RH  098%=      5-min Rain = 0
KLA1 071224Z 03005KT 18/18 A3014 RMK A01 T01800176  RH  098%=      5-min Rain = 0
KLA1 071225Z 04006KT 18/18 A3014 RMK A01 T01800176  RH  097%=      5-min Rain = 0
KLA1 071226Z 00007KT 18/18 A3014 RMK A01 T01800176  RH  097%=      5-min Rain = 0
KLA1 071227Z 36007KT 18/18 A3014 RMK A01 T01800176  RH  097%=      5-min Rain = 0
KLA1 071228Z 00007KT 18/18 A3014 RMK A01 T01800176  RH  098%=      5-min Rain = 0
KLA1 071229Z 36009KT 18/18 A3014 RMK A01 T01800177  RH  098%=      5-min Rain = 0
KLA1 071230Z 01007KT 18/18 A3014 RMK A01 T01790177  RH  099%=      5-min Rain = 0
KLA1 071231Z 01009KT 18/18 A3014 RMK A01 T01790178  RH  099%=      5-min Rain = 0
KLA1 071232Z 01008KT 18/18 A3014 RMK A01 T01780177  RH  099%=      5-min Rain = 0
KLA1 071233Z 02006KT 18/18 A3014 RMK A01 T01780178  RH  100%=      5-min Rain = 0
KLA1 071234Z 03005KT 18/18 A3013 RMK A01 T01780178  RH  100%=      5-min Rain = 0
KLA1 071235Z 03005KT 18/18 A3013 RMK A01 T01780178  RH  100%=      5-min Rain = 0
KLA1 071236Z 02006KT 18/18 A3013 RMK A01 T01770177  RH  100%=      5-min Rain = 0
KLA1 071237Z 02005KT 18/18 A3013 RMK A01 T01770177  RH  100%=      5-min Rain = 0
KLA1 071238Z 02006KT 18/18 A3014 RMK A01 T01770177  RH  100%=      5-min Rain = 0
KLA1 071239Z 02007KT 18/18 A3014 RMK A01 T01770177  RH  100%=      5-min Rain = 0
KLA1 071240Z 03006KT 18/18 A3014 RMK A01 T01760177  RH  100%=      5-min Rain = 0
KLA1 071241Z 02006KT 18/18 A3014 RMK A01 T01770177  RH  100%=      5-min Rain = 0
KLA1 071242Z 02006KT 18/18 A3014 RMK A01 T01770177  RH  100%=      5-min Rain = 0
KLA1 071243Z 02005KT 18/18 A3014 RMK A01 T01760177  RH  100%=      5-min Rain = 0
KLA1 071244Z 01006KT 18/18 A3014 RMK A01 T01770177  RH  100%=      5-min Rain = 0
KLA1 071245Z 01007KT 18/18 A3014 RMK A01 T01770177  RH  100%=      5-min Rain = 0
KLA1 071246Z 02005KT 18/18 A3014 RMK A01 T01770177  RH  100%=      5-min Rain = 0
KLA1 071247Z 02005KT 18/18 A3014 RMK A01 T01770177  RH  100%=      5-min Rain = 0
KLA1 071248Z 02005KT 18/18 A3015 RMK A01 T01770178  RH  100%=      5-min Rain = 0
KLA1 071249Z 01006KT 18/18 A3015 RMK A01 T01770178  RH  100%=      5-min Rain = 0
KLA1 071250Z 01004KT 18/18 A3014 RMK A01 T01780178  RH  100%=      5-min Rain = 0
KLA1 071251Z 00005KT 18/18 A3014 RMK A01 T01770177  RH  100%=      5-min Rain = 0
KLA1 071252Z 01005KT 18/18 A3014 RMK A01 T01770178  RH  100%=      5-min Rain = 0
KLA1 071253Z 01006KT 18/18 A3014 RMK A01 T01770177  RH  100%=      5-min Rain = 0
KLA1 071254Z 02006KT 18/18 A3015 RMK A01 T01780178  RH  100%=      5-min Rain = 0
KLA1 071255Z 02005KT 18/18 A3015 RMK A01 T01780178  RH  100%=      5-min Rain = 0
KLA1 071256Z 01005KT 18/18 A3015 RMK A01 T01780178  RH  100%=      5-min Rain = 0
KLA1 071257Z 01006KT 18/18 A3015 RMK A01 T01780178  RH  100%=      5-min Rain = 0
KLA1 071258Z 01006KT 18/18 A3015 RMK A01 T01780178  RH  100%=      5-min Rain = 0
KLA1 071259Z 02004KT 18/18 A3015 RMK A01 T01780178  RH  100%=      5-min Rain = 0
KLA1 071300Z 02006KT 18/18 A3015 RMK A01 T01780178  RH  100%=      5-min Rain = 0
KLA1 071301Z 02006KT 18/18 A3015 RMK A01 T01780178  RH  100%=      5-min Rain = 0
KLA1 071302Z 02004KT 18/18 A3015 RMK A01 T01780178  RH  100%=      5-min Rain = 0
KLA1 071303Z 02005KT 18/18 A3015 RMK A01 T01780178  RH  100%=      5-min Rain = 0
KLA1 071304Z 03005KT 18/18 A3015 RMK A01 T01780178  RH  100%=      5-min Rain = 0
KLA1 071305Z 02006KT 18/18 A3015 RMK A01 T01780178  RH  100%=      5-min Rain = 0
KLA1 071306Z 02005KT 18/18 A3015 RMK A01 T01780178  RH  100%=      5-min Rain = 0
KLA1 071307Z 03004KT 18/18 A3015 RMK A01 T01780178  RH  100%=      5-min Rain = 0
KLA1 071308Z 02004KT 18/18 A3015 RMK A01 T01780178  RH  100%=      5-min Rain = 0
KLA1 071309Z 02004KT 18/18 A3015 RMK A01 T01780178  RH  100%=      5-min Rain = 0
KLA1 071310Z 03004KT 18/18 A3015 RMK A01 T01780178  RH  100%=      5-min Rain = 0
KLA1 071311Z 03005KT 18/18 A3015 RMK A01 T01780178  RH  100%=      5-min Rain = 0
KLA1 071312Z 02005KT 18/18 A3015 RMK A01 T01780178  RH  100%=      5-min Rain = 0
KLA1 071313Z 02007KT 18/18 A3015 RMK A01 T01780178  RH  100%=      5-min Rain = 0
KLA1 071314Z 02005KT 18/18 A3015 RMK A01 T01780178  RH  100%=      5-min Rain = 0
KLA1 071315Z 02005KT 18/18 A3016 RMK A01 T01780178  RH  100%=      5-min Rain = 0
KLA1 071316Z 02006KT 18/18 A3016 RMK A01 T01780178  RH  100%=      5-min Rain = 0
KLA1 071317Z 02007KT 18/18 A3016 RMK A01 T01780178  RH  100%=      5-min Rain = 0
KLA1 071318Z 02007KT 18/18 A3016 RMK A01 T01780178  RH  100%=      5-min Rain = 0
KLA1 071319Z 02005KT 18/18 A3016 RMK A01 T01780177  RH  099%=      5-min Rain = 0
KLA1 071320Z 02004KT 18/18 A3016 RMK A01 T01790177  RH  099%=      5-min Rain = 0
KLA1 071321Z 03004KT 18/18 A3016 RMK A01 T01790177  RH  099%=      5-min Rain = 0
KLA1 071322Z 02006KT 18/18 A3016 RMK A01 T01790177  RH  099%=      5-min Rain = 0
KLA1 071323Z 02007KT 18/18 A3016 RMK A01 T01790177  RH  099%=      5-min Rain = 0
KLA1 071324Z 01008KT 18/18 A3017 RMK A01 T01790176  RH  098%=      5-min Rain = 0
KLA1 071325Z 01008KT 18/18 A3017 RMK A01 T01800176  RH  098%=      5-min Rain = 0
KLA1 071326Z 02005KT 18/18 A3017 RMK A01 T01790175  RH  097%=      5-min Rain = 0
KLA1 071327Z 01005KT 18/18 A3017 RMK A01 T01800176  RH  097%=      5-min Rain = 0
KLA1 071328Z 01006KT 18/18 A3017 RMK A01 T01800175  RH  097%=      5-min Rain = 0
KLA1 071329Z 01007KT 18/18 A3017 RMK A01 T01800176  RH  097%=      5-min Rain = 0
KLA1 071330Z 01005KT 18/18 A3017 RMK A01 T01800175  RH  097%=      5-min Rain = 0
KLA1 071331Z 00007KT 18/18 A3017 RMK A01 T01800176  RH  098%=      5-min Rain = 0
KLA1 071332Z 01008KT 18/18 A3017 RMK A01 T01800176  RH  098%=      5-min Rain = 0
KLA1 071333Z 01006KT 18/18 A3017 RMK A01 T01800177  RH  098%=      5-min Rain = 0
KLA1 071334Z 01006KT 18/18 A3017 RMK A01 T01800177  RH  098%=      5-min Rain = 0
KLA1 071335Z 01010KT 18/18 A3017 RMK A01 T01790177  RH  098%=      5-min Rain = 0
KLA1 071336Z 01009KT 18/18 A3018 RMK A01 T01790176  RH  098%=      5-min Rain = 0
KLA1 071337Z 02008KT 18/18 A3018 RMK A01 T01790175  RH  097%=      5-min Rain = 0
KLA1 071338Z 02011KT 18/18 A3018 RMK A01 T01790175  RH  097%=      5-min Rain = 0
KLA1 071339Z 02008G13KT 18/17 A3018 RMK A01 T01790173  RH  096%=      5-min Rain = 0
KLA1 071340Z 02007KT 18/17 A3018 RMK A01 T01800174  RH  096%=      5-min Rain = 0
KLA1 071341Z 02008KT 18/17 A3018 RMK A01 T01790173  RH  096%=      5-min Rain = 0
KLA1 071342Z 02007KT 18/17 A3018 RMK A01 T01800174  RH  097%=      5-min Rain = 0
KLA1 071343Z 02006KT 18/17 A3018 RMK A01 T01790174  RH  097%=      5-min Rain = 0
KLA1 071344Z 03006KT 18/18 A3018 RMK A01 T01790175  RH  098%=      5-min Rain = 0
KLA1 071345Z 02009KT 18/18 A3018 RMK A01 T01790175  RH  098%=      5-min Rain = 0
KLA1 071346Z 02006KT 18/18 A3018 RMK A01 T01790176  RH  098%=      5-min Rain = 0
KLA1 071347Z 02006KT 18/18 A3018 RMK A01 T01790176  RH  099%=      5-min Rain = 0
KLA1 071348Z 03006KT 18/18 A3018 RMK A01 T01780177  RH  099%=      5-min Rain = 0
KLA1 071349Z 04008KT 18/18 A3019 RMK A01 T01780177  RH  099%=      5-min Rain = 0
KLA1 071350Z 02007KT 18/18 A3019 RMK A01 T01770177  RH  100%=      5-min Rain = 0
KLA1 071351Z 02007KT 18/18 A3019 RMK A01 T01770177  RH  100%=      5-min Rain = 0
KLA1 071352Z 03010G15KT 18/18 A3019 RMK A01 T01770177  RH  100%=      5-min Rain = 0
KLA1 071353Z 03010KT 18/18 A3019 RMK A01 T01770177  RH  100%=      5-min Rain = 0
KLA1 071354Z 02011KT 18/18 A3019 RMK A01 T01770177  RH  100%=      5-min Rain = 0
KLA1 071355Z 02013KT 18/18 A3019 RMK A01 T01770177  RH  100%=      5-min Rain = 0
KLA1 071356Z 02012KT 18/18 A3019 RMK A01 T01770176  RH  099%=      5-min Rain = 0.01
KLA1 071357Z 02011KT 18/18 A3019 RMK A01 T01770175  RH  099%=      5-min Rain = 0
KLA1 071358Z 02013KT 18/18 A3019 RMK A01 T01770175  RH  099%=      5-min Rain = 0
KLA1 071359Z 02011KT 18/18 A3019 RMK A01 T01770175  RH  099%=      5-min Rain = 0
KLA1 071400Z 02010KT 18/18 A3019 RMK A01 T01770175  RH  099%=      5-min Rain = 0
KLA1 071401Z 01010KT 18/18 A3019 RMK A01 T01770176  RH  099%=      5-min Rain = 0
KLA1 071402Z 02010KT 18/18 A3019 RMK A01 T01760176  RH  100%=      5-min Rain = 0
KLA1 071403Z 02008KT 18/18 A3019 RMK A01 T01760176  RH  099%=      5-min Rain = 0
KLA1 071404Z 02008KT 18/18 A302 RMK A01 T01770176  RH  100%=      5-min Rain = 0
KLA1 071405Z 02008KT 18/18 A302 RMK A01 T01770177  RH  100%=      5-min Rain = 0
KLA1 071406Z 02010KT 18/18 A302 RMK A01 T01760176  RH  100%=      5-min Rain = 0
KLA1 071407Z 02010KT 18/18 A302 RMK A01 T01760176  RH  100%=      5-min Rain = 0
KLA1 071408Z 02012G17KT 18/18 A302 RMK A01 T01760176  RH  100%=      5-min Rain = 0
KLA1 071409Z 02008KT 18/18 A302 RMK A01 T01760175  RH  099%=      5-min Rain = 0
KLA1 071410Z 02009KT 18/17 A302 RMK A01 T01760174  RH  099%=      5-min Rain = 0
KLA1 071411Z 03011G16KT 18/17 A302 RMK A01 T01760174  RH  098%=      5-min Rain = 0
KLA1 071412Z 02010KT 18/17 A302 RMK A01 T01770174  RH  098%=      5-min Rain = 0
KLA1 071413Z 02010KT 18/17 A302 RMK A01 T01760174  RH  098%=      5-min Rain = 0
KLA1 071414Z 02009G15KT 18/17 A302 RMK A01 T01760174  RH  098%=      5-min Rain = 0
KLA1 071415Z 02009KT 18/17 A302 RMK A01 T01760173  RH  098%=      5-min Rain = 0
KLA1 071416Z 01007KT 18/17 A302 RMK A01 T01760174  RH  098%=      5-min Rain = 0
KLA1 071417Z 02008KT 18/18 A302 RMK A01 T01770175  RH  099%=      5-min Rain = 0
KLA1 071418Z 02008KT 18/18 A302 RMK A01 T01770175  RH  099%=      5-min Rain = 0
KLA1 071419Z 02009KT 18/18 A302 RMK A01 T01760176  RH  099%=      5-min Rain = 0
KLA1 071420Z 03008KT 18/18 A302 RMK A01 T01760175  RH  100%=      5-min Rain = 0
KLA1 071421Z 03010KT 18/18 A302 RMK A01 T01760176  RH  100%=      5-min Rain = 0
KLA1 071422Z 02010KT 18/18 A302 RMK A01 T01760176  RH  100%=      5-min Rain = 0
KLA1 071423Z 03009KT 18/18 A302 RMK A01 T01760176  RH  100%=      5-min Rain = 0
KLA1 071424Z 03011KT 18/18 A302 RMK A01 T01760176  RH  100%=      5-min Rain = 0
KLA1 071425Z 03011KT 18/18 A302 RMK A01 T01760175  RH  100%=      5-min Rain = 0
KLA1 071426Z 03009KT 18/18 A302 RMK A01 T01760175  RH  099%=      5-min Rain = 0
KLA1 071427Z 03012G17KT 18/18 A302 RMK A01 T01760175  RH  099%=      5-min Rain = 0
KLA1 071428Z 03012G17KT 18/18 A302 RMK A01 T01760175  RH  100%=      5-min Rain = 0
KLA1 071429Z 03013KT 18/18 A302 RMK A01 T01760176  RH  100%=      5-min Rain = 0
KLA1 071430Z 04012KT 18/18 A302 RMK A01 T01760176  RH  100%=      5-min Rain = 0
KLA1 071431Z 04013G18KT 18/18 A302 RMK A01 T01760176  RH  100%=      5-min Rain = 0
KLA1 071432Z 04011KT 18/18 A302 RMK A01 T01760176  RH  100%=      5-min Rain = 0
KLA1 071433Z 03013G19KT 18/18 A302 RMK A01 T01760176  RH  100%=      5-min Rain = 0
KLA1 071434Z 04011G16KT 18/18 A302 RMK A01 T01760176  RH  100%=      5-min Rain = 0
KLA1 071435Z 04011G16KT 18/18 A302 RMK A01 T01760176  RH  100%=      5-min Rain = 0
KLA1 071436Z 04012KT 18/18 A302 RMK A01 T01760176  RH  100%=      5-min Rain = 0
KLA1 071437Z 04014KT 18/18 A302 RMK A01 T01760176  RH  100%=      5-min Rain = 0
KLA1 071438Z 04010G17KT 18/18 A302 RMK A01 T01760176  RH  100%=      5-min Rain = 0
KLA1 071439Z 04012KT 18/18 A3021 RMK A01 T01760176  RH  100%=      5-min Rain = 0
KLA1 071440Z 04012KT 18/18 A3021 RMK A01 T01760176  RH  100%=      5-min Rain = 0
KLA1 071441Z 04009KT 18/18 A3021 RMK A01 T01760176  RH  100%=      5-min Rain = 0
KLA1 071442Z 04009G14KT 18/18 A3021 RMK A01 T01760177  RH  100%=      5-min Rain = 0
KLA1 071443Z 05009KT 18/18 A3021 RMK A01 T01770177  RH  100%=      5-min Rain = 0
KLA1 071444Z 04010KT 18/18 A3021 RMK A01 T01770176  RH  100%=      5-min Rain = 0
KLA1 071445Z 04011KT 18/18 A3021 RMK A01 T01770177  RH  100%=      5-min Rain = 0
KLA1 071446Z 05010G17KT 18/18 A3021 RMK A01 T01770177  RH  099%=      5-min Rain = 0
KLA1 071447Z 05010G16KT 18/18 A3021 RMK A01 T01770175  RH  099%=      5-min Rain = 0
KLA1 071448Z 04010KT 18/18 A3021 RMK A01 T01780176  RH  099%=      5-min Rain = 0
KLA1 071449Z 04010G15KT 18/18 A3021 RMK A01 T01780176  RH  099%=      5-min Rain = 0
KLA1 071450Z 04014KT 18/18 A3021 RMK A01 T01780176  RH  099%=      5-min Rain = 0.01
KLA1 071451Z 03009KT 18/17 A302 RMK A01 T01780174  RH  098%=      5-min Rain = 0
KLA1 071452Z 04008G14KT 18/18 A302 RMK A01 T01780176  RH  099%=      5-min Rain = 0
KLA1 071453Z 03013KT 18/18 A3021 RMK A01 T01780175  RH  098%=      5-min Rain = 0
KLA1 071454Z 03015KT 18/17 A3021 RMK A01 T01750168  RH  096%=      5-min Rain = 0
KLA1 071455Z 03017G23KT 17/16 A3021 RMK A01 T01700159  RH  093%=      5-min Rain = 0
KLA1 071456Z 03012G18KT 16/15 A3021 RMK A01 T01640150  RH  091%=      5-min Rain = 0
KLA1 071457Z 03017G23KT 16/15 A3021 RMK A01 T01590147  RH  092%=      5-min Rain = 0
KLA1 071458Z 03016G21KT 16/14 A3021 RMK A01 T01550142  RH  092%=      5-min Rain = 0
KLA1 071459Z 02014G21KT 15/14 A3021 RMK A01 T01510141  RH  093%=      5-min Rain = 0
KLA1 071500Z 02015KT 15/14 A3021 RMK A01 T01480139  RH  094%=      5-min Rain = 0
KLA1 071501Z 03017G23KT 15/14 A3021 RMK A01 T01450136  RH  094%=      5-min Rain = 0
KLA1 071502Z 03020G27KT 14/13 A3022 RMK A01 T01420132  RH  094%=      5-min Rain = 0
KLA1 071503Z 03015KT 14/13 A3022 RMK A01 T01390128  RH  093%=      5-min Rain = 0
KLA1 071504Z 03016G22KT 14/13 A3022 RMK A01 T01370128  RH  094%=      5-min Rain = 0
KLA1 071505Z 02017G23KT 13/13 A3022 RMK A01 T01340125  RH  094%=      5-min Rain = 0
KLA1 071506Z 02019KT 13/13 A3022 RMK A01 T01330125  RH  095%=      5-min Rain = 0
KLA1 071507Z 02016KT 13/12 A3022 RMK A01 T01310124  RH  095%=      5-min Rain = 0
KLA1 071508Z 02015G20KT 13/12 A3023 RMK A01 T01300124  RH  096%=      5-min Rain = 0
KLA1 071509Z 01012KT 13/12 A3023 RMK A01 T01290124  RH  097%=      5-min Rain = 0
KLA1 071510Z 00017G22KT 13/13 A3023 RMK A01 T01300125  RH  097%=      5-min Rain = 0
KLA1 071511Z 01015G22KT 13/12 A3024 RMK A01 T01280122  RH  096%=      5-min Rain = 0
KLA1 071512Z 01019KT 13/12 A3024 RMK A01 T01270119  RH  095%=      5-min Rain = 0
KLA1 071513Z 01013KT 13/12 A3024 RMK A01 T01250119  RH  096%=      5-min Rain = 0
KLA1 071514Z 01015G20KT 13/12 A3024 RMK A01 T01250118  RH  096%=      5-min Rain = 0
KLA1 071515Z 01016G21KT 12/12 A3024 RMK A01 T01230116  RH  096%=      5-min Rain = 0
KLA1 071516Z 01021G26KT 12/11 A3024 RMK A01 T01220114  RH  095%=      5-min Rain = 0
KLA1 071517Z 01015G22KT 12/11 A3025 RMK A01 T01200112  RH  095%=      5-min Rain = 0
KLA1 071518Z 02017G22KT 12/11 A3025 RMK A01 T01190112  RH  096%=      5-min Rain = 0
KLA1 071519Z 01015G21KT 12/11 A3025 RMK A01 T01180111  RH  095%=      5-min Rain = 0
KLA1 071520Z 01018G23KT 12/11 A3025 RMK A01 T01170110  RH  096%=      5-min Rain = 0
KLA1 071521Z 01017G23KT 12/11 A3025 RMK A01 T01160109  RH  096%=      5-min Rain = 0
KLA1 071522Z 01014G22KT 12/11 A3025 RMK A01 T01150109  RH  096%=      5-min Rain = 0
KLA1 071523Z 01017G24KT 11/11 A3025 RMK A01 T01140106  RH  095%=      5-min Rain = 0
KLA1 071524Z 01016G22KT 11/10 A3025 RMK A01 T01120103  RH  094%=      5-min Rain = 0
KLA1 071525Z 01016G21KT 11/10 A3024 RMK A01 T01110101  RH  094%=      5-min Rain = 0
KLA1 071526Z 02013G21KT 11/10 A3024 RMK A01 T01100101  RH  094%=      5-min Rain = 0
KLA1 071527Z 01017G24KT 11/10 A3024 RMK A01 T01090101  RH  094%=      5-min Rain = 0
KLA1 071528Z 01016G23KT 11/10 A3024 RMK A01 T01090099  RH  094%=      5-min Rain = 0
KLA1 071529Z 02018G25KT 11/10 A3024 RMK A01 T01080099  RH  094%=      5-min Rain = 0
KLA1 071530Z 02020G30KT 11/10 A3024 RMK A01 T01080097  RH  093%=      5-min Rain = 0
KLA1 071531Z 02020G26KT 11/10 A3024 RMK A01 T01070096  RH  093%=      5-min Rain = 0
KLA1 071532Z 01013G19KT 11/10 A3024 RMK A01 T01060096  RH  093%=      5-min Rain = 0
KLA1 071533Z 01017G26KT 11/10 A3024 RMK A01 T01060097  RH  094%=      5-min Rain = 0
KLA1 071534Z 01022G29KT 11/10 A3024 RMK A01 T01070096  RH  093%=      5-min Rain = 0
KLA1 071535Z 01018G24KT 11/10 A3024 RMK A01 T01070095  RH  093%=      5-min Rain = 0
KLA1 071536Z 01015G23KT 11/10 A3024 RMK A01 T01070097  RH  093%=      5-min Rain = 0
KLA1 071537Z 02013G20KT 11/10 A3024 RMK A01 T01080097  RH  093%=      5-min Rain = 0
KLA1 071538Z 02011G17KT 11/10 A3024 RMK A01 T01080098  RH  094%=      5-min Rain = 0
KLA1 071539Z 02012G21KT 11/10 A3024 RMK A01 T01080099  RH  094%=      5-min Rain = 0
KLA1 071540Z 01012KT 11/10 A3024 RMK A01 T01080099  RH  094%=      5-min Rain = 0
KLA1 071541Z 01014G20KT 11/10 A3025 RMK A01 T01090100  RH  094%=      5-min Rain = 0
KLA1 071542Z 00016G24KT 11/10 A3025 RMK A01 T01090100  RH  094%=      5-min Rain = 0
KLA1 071543Z 01017G23KT 11/10 A3025 RMK A01 T01080099  RH  094%=      5-min Rain = 0
KLA1 071544Z 01019G24KT 11/10 A3025 RMK A01 T01080098  RH  094%=      5-min Rain = 0
KLA1 071545Z 01016G24KT 11/10 A3025 RMK A01 T01070098  RH  094%=      5-min Rain = 0
KLA1 071546Z 01011G17KT 11/10 A3026 RMK A01 T01070098  RH  094%=      5-min Rain = 0
KLA1 071547Z 01011G17KT 11/10 A3026 RMK A01 T01070098  RH  094%=      5-min Rain = 0
KLA1 071548Z 01012G21KT 11/10 A3026 RMK A01 T01070098  RH  094%=      5-min Rain = 0
KLA1 071549Z 02015G22KT 11/10 A3026 RMK A01 T01070097  RH  093%=      5-min Rain = 0
KLA1 071550Z 01013KT 11/10 A3026 RMK A01 T01070096  RH  093%=      5-min Rain = 0
KLA1 071551Z 02014G22KT 11/10 A3026 RMK A01 T01070096  RH  093%=      5-min Rain = 0
KLA1 071552Z 36011G18KT 11/10 A3027 RMK A01 T01060095  RH  093%=      5-min Rain = 0
KLA1 071553Z 00011G16KT 11/10 A3027 RMK A01 T01060096  RH  094%=      5-min Rain = 0
KLA1 071554Z 35011G16KT 11/10 A3027 RMK A01 T01060095  RH  093%=      5-min Rain = 0
KLA1 071555Z 01012G17KT 11/09 A3027 RMK A01 T01050094  RH  093%=      5-min Rain = 0
KLA1 071556Z 01012G18KT 11/09 A3027 RMK A01 T01050092  RH  092%=      5-min Rain = 0
KLA1 071557Z 35012G17KT 10/09 A3027 RMK A01 T01040089  RH  091%=      5-min Rain = 0
KLA1 071558Z 00013G19KT 10/09 A3028 RMK A01 T01020086  RH  089%=      5-min Rain = 0
KLA1 071559Z 01013G20KT 10/08 A3028 RMK A01 T01010083  RH  089%=      5-min Rain = 0
KLA1 071600Z 35011G16KT 10/08 A3028 RMK A01 T01000082  RH  089%=      5-min Rain = 0
KLA1 071601Z 34007G12KT 10/08 A3029 RMK A01 T01000083  RH  089%=      5-min Rain = 0
KLA1 071602Z 36014G20KT 10/08 A3029 RMK A01 T01000082  RH  089%=      5-min Rain = 0
KLA1 071603Z 35011KT 10/08 A3029 RMK A01 T00990081  RH  089%=      5-min Rain = 0
KLA1 071604Z 00012KT 10/08 A3029 RMK A01 T00990082  RH  089%=      5-min Rain = 0
KLA1 071605Z 35011KT 10/08 A303 RMK A01 T00990082  RH  090%=      5-min Rain = 0
KLA1 071606Z 36005G10KT 10/08 A303 RMK A01 T00990083  RH  090%=      5-min Rain = 0
KLA1 071607Z 36006KT 10/08 A303 RMK A01 T00990084  RH  090%=      5-min Rain = 0
KLA1 071608Z 34004G9KT 10/08 A303 RMK A01 T00990083  RH  090%=      5-min Rain = 0
KLA1 071609Z 33006G14KT 10/08 A303 RMK A01 T00990084  RH  091%=      5-min Rain = 0
KLA1 071610Z 32007KT 10/09 A303 RMK A01 T00990085  RH  091%=      5-min Rain = 0
KLA1 071611Z 33005KT 10/09 A303 RMK A01 T00990086  RH  091%=      5-min Rain = 0
KLA1 071612Z 35007KT 10/09 A303 RMK A01 T00990085  RH  091%=      5-min Rain = 0
KLA1 071613Z 34005KT 10/08 A3031 RMK A01 T00990084  RH  091%=      5-min Rain = 0
KLA1 071614Z 35005G10KT 10/08 A3031 RMK A01 T00980084  RH  091%=      5-min Rain = 0
KLA1 071615Z 01012KT 10/08 A3031 RMK A01 T00980082  RH  090%=      5-min Rain = 0
KLA1 071616Z 01009KT 10/08 A3031 RMK A01 T00970080  RH  089%=      5-min Rain = 0
KLA1 071617Z 00008KT 10/08 A3031 RMK A01 T00960079  RH  089%=      5-min Rain = 0
KLA1 071618Z 01009KT 10/08 A3031 RMK A01 T00960080  RH  090%=      5-min Rain = 0
KLA1 071619Z 36008KT 10/08 A3031 RMK A01 T00960081  RH  090%=      5-min Rain = 0
KLA1 071620Z 36008KT 10/08 A3031 RMK A01 T00960082  RH  091%=      5-min Rain = 0
KLA1 071621Z 35009KT 10/08 A3031 RMK A01 T00960082  RH  091%=      5-min Rain = 0
KLA1 071622Z 01012KT 10/08 A3031 RMK A01 T00960081  RH  090%=      5-min Rain = 0
KLA1 071623Z 01010KT 10/08 A3031 RMK A01 T00960080  RH  090%=      5-min Rain = 0
KLA1 071624Z 36007KT 10/08 A3031 RMK A01 T00950080  RH  090%=      5-min Rain = 0
KLA1 071625Z 35004KT 10/08 A3031 RMK A01 T00950082  RH  091%=      5-min Rain = 0
KLA1 071626Z 32003KT 10/08 A3031 RMK A01 T00960083  RH  092%=      5-min Rain = 0
KLA1 071627Z 32006G12KT 10/08 A3032 RMK A01 T00960083  RH  092%=      5-min Rain = 0
KLA1 071628Z 31006KT 10/08 A3032 RMK A01 T00960082  RH  091%=      5-min Rain = 0
KLA1 071629Z 35008G13KT 10/08 A3032 RMK A01 T00950082  RH  091%=      5-min Rain = 0
KLA1 071630Z 33010KT 10/08 A3032 RMK A01 T00950081  RH  091%=      5-min Rain = 0
KLA1 071631Z 35006KT 09/08 A3032 RMK A01 T00930079  RH  091%=      5-min Rain = 0
KLA1 071632Z 35009KT 09/08 A3032 RMK A01 T00930080  RH  092%=      5-min Rain = 0
KLA1 071633Z 36007KT 09/08 A3032 RMK A01 T00920081  RH  092%=      5-min Rain = 0
KLA1 071634Z 35007KT 09/08 A3032 RMK A01 T00920081  RH  092%=      5-min Rain = 0
KLA1 071635Z 01010KT 09/08 A3032 RMK A01 T00920080  RH  092%=      5-min Rain = 0
KLA1 071636Z 35010KT 09/08 A3032 RMK A01 T00910078  RH  092%=      5-min Rain = 0
KLA1 071637Z 02006KT 09/08 A3032 RMK A01 T00900079  RH  092%=      5-min Rain = 0
KLA1 071638Z 02006KT 09/08 A3032 RMK A01 T00900080  RH  093%=      5-min Rain = 0
KLA1 071639Z 02010G15KT 09/08 A3032 RMK A01 T00900079  RH  093%=      5-min Rain = 0
KLA1 071640Z 04010G17KT 09/08 A3032 RMK A01 T00900077  RH  092%=      5-min Rain = 0
KLA1 071641Z 03009G14KT 09/07 A3032 RMK A01 T00890074  RH  091%=      5-min Rain = 0
KLA1 071642Z 01008G14KT 09/08 A3032 RMK A01 T00890076  RH  092%=      5-min Rain = 0
KLA1 071643Z 02009KT 09/08 A3032 RMK A01 T00890077  RH  092%=      5-min Rain = 0
KLA1 071644Z 36009KT 09/08 A3033 RMK A01 T00890076  RH  092%=      5-min Rain = 0
KLA1 071645Z 34005KT 09/08 A3033 RMK A01 T00890077  RH  092%=      5-min Rain = 0
KLA1 071646Z 36008G13KT 09/08 A3033 RMK A01 T00890077  RH  092%=      5-min Rain = 0
KLA1 071647Z 34007KT 09/08 A3033 RMK A01 T00880075  RH  091%=      5-min Rain = 0
KLA1 071648Z 31008KT 09/07 A3033 RMK A01 T00880074  RH  091%=      5-min Rain = 0
KLA1 071649Z 33008KT 09/07 A3033 RMK A01 T00860073  RH  091%=      5-min Rain = 0
KLA1 071650Z 01006KT 09/07 A3033 RMK A01 T00850072  RH  091%=      5-min Rain = 0
KLA1 071651Z 34010G16KT 08/07 A3033 RMK A01 T00840070  RH  091%=      5-min Rain = 0
KLA1 071652Z 36011KT 08/07 A3033 RMK A01 T00830067  RH  090%=      5-min Rain = 0
KLA1 071653Z 35011KT 08/07 A3033 RMK A01 T00820067  RH  090%=      5-min Rain = 0
KLA1 071654Z 36011KT 08/07 A3034 RMK A01 T00820067  RH  091%=      5-min Rain = 0
KLA1 071655Z 35013G18KT 08/07 A3034 RMK A01 T00810066  RH  090%=      5-min Rain = 0
KLA1 071656Z 35012KT 08/07 A3034 RMK A01 T00800065  RH  090%=      5-min Rain = 0
KLA1 071657Z 01009G14KT 08/07 A3034 RMK A01 T00800065  RH  090%=      5-min Rain = 0
KLA1 071658Z 01012G17KT 08/06 A3034 RMK A01 T00790064  RH  091%=      5-min Rain = 0
KLA1 071659Z 00012G17KT 08/06 A3033 RMK A01 T00790064  RH  091%=      5-min Rain = 0
KLA1 071700Z 01013KT 08/07 A3033 RMK A01 T00790065  RH  091%=      5-min Rain = 0
KLA1 071701Z 01010G15KT 08/07 A3033 RMK A01 T00790065  RH  091%=      5-min Rain = 0
KLA1 071702Z 00012KT 08/07 A3034 RMK A01 T00790065  RH  091%=      5-min Rain = 0
KLA1 071703Z 36009KT 08/06 A3034 RMK A01 T00790064  RH  091%=      5-min Rain = 0
KLA1 071704Z 34008KT 08/07 A3034 RMK A01 T00780065  RH  092%=      5-min Rain = 0
KLA1 071705Z 35012G17KT 08/07 A3034 RMK A01 T00780065  RH  091%=      5-min Rain = 0
KLA1 071706Z 35013KT 08/06 A3034 RMK A01 T00780063  RH  091%=      5-min Rain = 0
KLA1 071707Z 35009KT 08/06 A3034 RMK A01 T00770063  RH  091%=      5-min Rain = 0
KLA1 071708Z 36006KT 08/06 A3034 RMK A01 T00760062  RH  091%=      5-min Rain = 0
KLA1 071709Z 03003KT 08/06 A3035 RMK A01 T00760063  RH  091%=      5-min Rain = 0
KLA1 071710Z 02005KT 08/06 A3034 RMK A01 T00760063  RH  092%=      5-min Rain = 0
KLA1 071711Z 01012KT 08/07 A3035 RMK A01 T00760065  RH  092%=      5-min Rain = 0
KLA1 071712Z 01011G17KT 08/06 A3035 RMK A01 T00760063  RH  091%=      5-min Rain = 0
KLA1 071713Z 02011KT 08/06 A3035 RMK A01 T00760063  RH  091%=      5-min Rain = 0
KLA1 071714Z 00011G18KT 08/06 A3035 RMK A01 T00760063  RH  091%=      5-min Rain = 0
KLA1 071715Z 32006KT 08/06 A3035 RMK A01 T00760063  RH  092%=      5-min Rain = 0
KLA1 071716Z 00007KT 08/06 A3035 RMK A01 T00760063  RH  092%=      5-min Rain = 0
KLA1 071717Z 36008KT 08/06 A3035 RMK A01 T00760063  RH  091%=      5-min Rain = 0
KLA1 071718Z 01010KT 08/06 A3035 RMK A01 T00760063  RH  091%=      5-min Rain = 0
KLA1 071719Z 01012KT 08/06 A3035 RMK A01 T00760062  RH  091%=      5-min Rain = 0
KLA1 071720Z 01010KT 08/06 A3035 RMK A01 T00750061  RH  091%=      5-min Rain = 0
KLA1 071721Z 01012KT 08/06 A3035 RMK A01 T00750062  RH  091%=      5-min Rain = 0
KLA1 071722Z 35009KT 08/06 A3035 RMK A01 T00750062  RH  092%=      5-min Rain = 0
KLA1 071723Z 35006KT 08/06 A3035 RMK A01 T00750062  RH  092%=      5-min Rain = 0
KLA1 071724Z 35008G14KT 08/07 A3035 RMK A01 T00750065  RH  093%=      5-min Rain = 0
KLA1 071725Z 36012KT 08/06 A3035 RMK A01 T00750063  RH  092%=      5-min Rain = 0
KLA1 071726Z 33008KT 07/06 A3035 RMK A01 T00740062  RH  092%=      5-min Rain = 0
KLA1 071727Z 33009KT 07/06 A3035 RMK A01 T00740062  RH  092%=      5-min Rain = 0
KLA1 071728Z 33010KT 07/06 A3035 RMK A01 T00740062  RH  092%=      5-min Rain = 0
KLA1 071729Z 33008KT 07/06 A3035 RMK A01 T00740062  RH  092%=      5-min Rain = 0
KLA1 071730Z 34007KT 07/06 A3035 RMK A01 T00740062  RH  092%=      5-min Rain = 0
KLA1 071731Z 35007KT 07/06 A3035 RMK A01 T00730062  RH  093%=      5-min Rain = 0
KLA1 071732Z 35007KT 07/06 A3035 RMK A01 T00730062  RH  093%=      5-min Rain = 0
KLA1 071733Z 01005KT 07/06 A3035 RMK A01 T00730062  RH  093%=      5-min Rain = 0
KLA1 071734Z 35006KT 07/06 A3035 RMK A01 T00730062  RH  093%=      5-min Rain = 0
KLA1 071735Z 35005KT 07/06 A3035 RMK A01 T00740063  RH  093%=      5-min Rain = 0
KLA1 071736Z 00003KT 07/06 A3035 RMK A01 T00730063  RH  093%=      5-min Rain = 0
KLA1 071737Z 35006KT 07/06 A3035 RMK A01 T00730063  RH  093%=      5-min Rain = 0
KLA1 071738Z 34007KT 07/06 A3035 RMK A01 T00730061  RH  092%=      5-min Rain = 0
KLA1 071739Z 35009KT 07/06 A3035 RMK A01 T00720060  RH  092%=      5-min Rain = 0
KLA1 071740Z 01007KT 07/06 A3035 RMK A01 T00720059  RH  092%=      5-min Rain = 0
KLA1 071741Z 35005G11KT 07/06 A3035 RMK A01 T00710060  RH  092%=      5-min Rain = 0
KLA1 071742Z 01009KT 07/06 A3035 RMK A01 T00710060  RH  092%=      5-min Rain = 0
KLA1 071743Z 00008KT 07/06 A3035 RMK A01 T00710059  RH  092%=      5-min Rain = 0
KLA1 071744Z 35009KT 07/06 A3035 RMK A01 T00710058  RH  091%=      5-min Rain = 0
KLA1 071745Z 36010KT 07/06 A3035 RMK A01 T00710057  RH  091%=      5-min Rain = 0
KLA1 071746Z 01012G18KT 07/06 A3035 RMK A01 T00700056  RH  091%=      5-min Rain = 0
KLA1 071747Z 01011G16KT 07/06 A3035 RMK A01 T00700055  RH  090%=      5-min Rain = 0
KLA1 071748Z 01013G18KT 07/05 A3035 RMK A01 T00690054  RH  090%=      5-min Rain = 0
KLA1 071749Z 00011KT 07/05 A3035 RMK A01 T00690054  RH  091%=      5-min Rain = 0
KLA1 071750Z 02010KT 07/06 A3035 RMK A01 T00690055  RH  091%=      5-min Rain = 0
KLA1 071751Z 36009KT 07/06 A3035 RMK A01 T00690055  RH  091%=      5-min Rain = 0
KLA1 071752Z 36007KT 07/06 A3035 RMK A01 T00690055  RH  091%=      5-min Rain = 0
KLA1 071753Z 01006KT 07/06 A3035 RMK A01 T00690056  RH  092%=      5-min Rain = 0
KLA1 071754Z 33006KT 07/06 A3035 RMK A01 T00690057  RH  092%=      5-min Rain = 0
KLA1 071755Z 35005KT 07/06 A3035 RMK A01 T00700057  RH  092%=      5-min Rain = 0
KLA1 071756Z 34003KT 07/06 A3035 RMK A01 T00700056  RH  091%=      5-min Rain = 0
KLA1 071757Z 02006KT 07/06 A3035 RMK A01 T00690056  RH  091%=      5-min Rain = 0
KLA1 071758Z 33005KT 07/06 A3035 RMK A01 T00700057  RH  091%=      5-min Rain = 0
KLA1 071759Z 33006KT 07/06 A3035 RMK A01 T00700057  RH  091%=      5-min Rain = 0
KLA1 071800Z 34007KT 07/06 A3036 RMK A01 T00700057  RH  091%=      5-min Rain = 0
KLA1 071801Z 00007KT 07/06 A3036 RMK A01 T00700057  RH  091%=      5-min Rain = 0
KLA1 071802Z 34003KT 07/06 A3036 RMK A01 T00700056  RH  091%=      5-min Rain = 0
KLA1 071803Z 33006G12KT 07/06 A3036 RMK A01 T00690056  RH  091%=      5-min Rain = 0
KLA1 071804Z 35010KT 07/06 A3036 RMK A01 T00700057  RH  092%=      5-min Rain = 0
KLA1 071805Z 36008KT 07/06 A3036 RMK A01 T00690056  RH  091%=      5-min Rain = 0
KLA1 071806Z 35007KT 07/06 A3036 RMK A01 T00690057  RH  092%=      5-min Rain = 0
KLA1 071807Z 35009G14KT 07/06 A3036 RMK A01 T00700058  RH  092%=      5-min Rain = 0
KLA1 071808Z 34007KT 07/06 A3035 RMK A01 T00700059  RH  093%=      5-min Rain = 0
KLA1 071809Z 35005G11KT 07/06 A3035 RMK A01 T00700060  RH  094%=      5-min Rain = 0
KLA1 071810Z 34010KT 07/06 A3035 RMK A01 T00700061  RH  094%=      5-min Rain = 0
KLA1 071811Z 34010KT 07/06 A3035 RMK A01 T00700062  RH  095%=      5-min Rain = 0
KLA1 071812Z 33009KT 07/06 A3035 RMK A01 T00700063  RH  096%=      5-min Rain = 0
KLA1 071813Z 34011KT 07/06 A3035 RMK A01 T00690064  RH  096%=      5-min Rain = 0
KLA1 071814Z 33012KT 07/06 A3035 RMK A01 T00690063  RH  096%=      5-min Rain = 0
KLA1 071815Z 34012KT 07/06 A3035 RMK A01 T00690063  RH  096%=      5-min Rain = 0
KLA1 071816Z 35011KT 07/06 A3035 RMK A01 T00680063  RH  097%=      5-min Rain = 0
KLA1 071817Z 34008G13KT 07/06 A3035 RMK A01 T00680064  RH  098%=      5-min Rain = 0
KLA1 071818Z 36011KT 07/06 A3035 RMK A01 T00670063  RH  097%=      5-min Rain = 0
KLA1 071819Z 34009KT 07/06 A3035 RMK A01 T00660062  RH  098%=      5-min Rain = 0
KLA1 071820Z 34012KT 07/06 A3035 RMK A01 T00660062  RH  098%=      5-min Rain = 0
KLA1 071821Z 35014KT 06/06 A3035 RMK A01 T00640058  RH  096%=      5-min Rain = 0
KLA1 071822Z 36011KT 06/06 A3035 RMK A01 T00630056  RH  096%=      5-min Rain = 0
KLA1 071823Z 35010KT 06/06 A3035 RMK A01 T00620056  RH  096%=      5-min Rain = 0
KLA1 071824Z 01009KT 06/06 A3035 RMK A01 T00620056  RH  096%=      5-min Rain = 0
KLA1 071825Z 01009KT 06/06 A3035 RMK A01 T00610056  RH  096%=      5-min Rain = 0
KLA1 071826Z 01008KT 06/06 A3035 RMK A01 T00610056  RH  097%=      5-min Rain = 0
KLA1 071827Z 00011KT 06/06 A3035 RMK A01 T00610056  RH  097%=      5-min Rain = 0
KLA1 071828Z 01012KT 06/05 A3035 RMK A01 T00590054  RH  096%=      5-min Rain = 0.02
KLA1 071829Z 36009KT 06/06 A3035 RMK A01 T00600055  RH  097%=      5-min Rain = 0
KLA1 071830Z 00010KT 06/05 A3035 RMK A01 T00590054  RH  096%=      5-min Rain = 0
KLA1 071831Z 36008KT 06/05 A3035 RMK A01 T00580054  RH  097%=      5-min Rain = 0
KLA1 071832Z 34007G13KT 06/06 A3035 RMK A01 T00590056  RH  098%=      5-min Rain = 0
KLA1 071833Z 34012KT 06/06 A3035 RMK A01 T00590056  RH  098%=      5-min Rain = 0
KLA1 071834Z 34007KT 06/05 A3035 RMK A01 T00580054  RH  097%=      5-min Rain = 0
KLA1 071835Z 33011KT 06/05 A3035 RMK A01 T00580054  RH  097%=      5-min Rain = 0
KLA1 071836Z 34010KT 06/05 A3036 RMK A01 T00580054  RH  097%=      5-min Rain = 0
KLA1 071837Z 34011G16KT 06/05 A3036 RMK A01 T00580054  RH  097%=      5-min Rain = 0
KLA1 071838Z 34008KT 06/05 A3036 RMK A01 T00570053  RH  097%=      5-min Rain = 0
KLA1 071839Z 32006KT 06/06 A3036 RMK A01 T00570055  RH  098%=      5-min Rain = 0
KLA1 071840Z 34006KT 06/06 A3036 RMK A01 T00570056  RH  099%=      5-min Rain = 0
KLA1 071841Z 33008KT 06/06 A3036 RMK A01 T00570056  RH  099%=      5-min Rain = 0.01
KLA1 071842Z 34009KT 06/06 A3036 RMK A01 T00570057  RH  100%=      5-min Rain = 0
KLA1 071843Z 34008KT 06/06 A3036 RMK A01 T00570057  RH  100%=      5-min Rain = 0
KLA1 071844Z 34009KT 06/06 A3036 RMK A01 T00570057  RH  100%=      5-min Rain = 0
KLA1 071845Z 34009KT 06/06 A3036 RMK A01 T00570057  RH  100%=      5-min Rain = 0
KLA1 071846Z 35011KT 06/06 A3036 RMK A01 T00570057  RH  100%=      5-min Rain = 0
KLA1 071847Z 34010KT 06/06 A3036 RMK A01 T00570056  RH  100%=      5-min Rain = 0
KLA1 071848Z 34010KT 06/06 A3036 RMK A01 T00560056  RH  100%=      5-min Rain = 0
KLA1 071849Z 34009G14KT 06/06 A3036 RMK A01 T00570057  RH  100%=      5-min Rain = 0
KLA1 071850Z 34006KT 06/06 A3036 RMK A01 T00570057  RH  100%=      5-min Rain = 0
KLA1 071851Z 34010KT 06/06 A3036 RMK A01 T00570057  RH  100%=      5-min Rain = 0
KLA1 071852Z 35011KT 06/06 A3036 RMK A01 T00580058  RH  100%=      5-min Rain = 0
KLA1 071853Z 35008KT 06/06 A3036 RMK A01 T00570057  RH  100%=      5-min Rain = 0
KLA1 071854Z 35009KT 06/06 A3036 RMK A01 T00570057  RH  100%=      5-min Rain = 0
KLA1 071855Z 34006KT 06/06 A3036 RMK A01 T00570057  RH  100%=      5-min Rain = 0
KLA1 071856Z 32008KT 06/06 A3036 RMK A01 T00570057  RH  100%=      5-min Rain = 0
KLA1 071857Z 32008KT 06/06 A3036 RMK A01 T00580058  RH  100%=      5-min Rain = 0
KLA1 071858Z 34010G15KT 06/06 A3036 RMK A01 T00580058  RH  100%=      5-min Rain = 0
KLA1 071859Z 32009G14KT 06/06 A3036 RMK A01 T00580058  RH  100%=      5-min Rain = 0
KLA1 071900Z 34009KT 06/06 A3036 RMK A01 T00580058  RH  100%=      5-min Rain = 0
KLA1 071901Z 34010KT 06/06 A3036 RMK A01 T00570057  RH  100%=      5-min Rain = 0
KLA1 071902Z 32007KT 06/06 A3036 RMK A01 T00570057  RH  100%=      5-min Rain = 0
KLA1 071903Z 33006KT 06/06 A3036 RMK A01 T00570057  RH  100%=      5-min Rain = 0
KLA1 071904Z 35008KT 06/06 A3036 RMK A01 T00580058  RH  100%=      5-min Rain = 0
KLA1 071905Z 33008KT 06/06 A3036 RMK A01 T00570057  RH  100%=      5-min Rain = 0
KLA1 071906Z 33006KT 06/06 A3036 RMK A01 T00570056  RH  099%=      5-min Rain = 0
KLA1 071907Z 33007KT 06/06 A3035 RMK A01 T00570056  RH  099%=      5-min Rain = 0
KLA1 071908Z 34007KT 06/06 A3035 RMK A01 T00570056  RH  099%=      5-min Rain = 0
KLA1 071909Z 34009KT 06/06 A3035 RMK A01 T00570056  RH  099%=      5-min Rain = 0
KLA1 071910Z 34006KT 06/06 A3035 RMK A01 T00570055  RH  099%=      5-min Rain = 0
KLA1 071911Z 32009KT 06/06 A3035 RMK A01 T00570056  RH  099%=      5-min Rain = 0
KLA1 071912Z 32008KT 06/06 A3035 RMK A01 T00570057  RH  100%=      5-min Rain = 0
KLA1 071913Z 32007G12KT 06/06 A3036 RMK A01 T00570057  RH  100%=      5-min Rain = 0
KLA1 071914Z 32009KT 06/06 A3035 RMK A01 T00570056  RH  100%=      5-min Rain = 0
KLA1 071915Z 32012KT 06/06 A3035 RMK A01 T00570056  RH  099%=      5-min Rain = 0
KLA1 071916Z 32012KT 06/06 A3036 RMK A01 T00560055  RH  099%=      5-min Rain = 0
KLA1 071917Z 32012KT 06/06 A3036 RMK A01 T00560055  RH  099%=      5-min Rain = 0
KLA1 071918Z 32012KT 06/05 A3035 RMK A01 T00560054  RH  099%=      5-min Rain = 0
KLA1 071919Z 33009KT 06/05 A3036 RMK A01 T00560053  RH  098%=      5-min Rain = 0
KLA1 071920Z 32011KT 06/05 A3036 RMK A01 T00560053  RH  098%=      5-min Rain = 0
KLA1 071921Z 33011G17KT 06/05 A3036 RMK A01 T00550053  RH  098%=      5-min Rain = 0
KLA1 071922Z 33011KT 06/05 A3035 RMK A01 T00550053  RH  098%=      5-min Rain = 0
KLA1 071923Z 34007KT 06/05 A3036 RMK A01 T00550053  RH  098%=      5-min Rain = 0
KLA1 071924Z 33009KT 06/05 A3036 RMK A01 T00550054  RH  099%=      5-min Rain = 0
KLA1 071925Z 34008KT 06/06 A3036 RMK A01 T00560055  RH  099%=      5-min Rain = 0
KLA1 071926Z 33008KT 06/06 A3036 RMK A01 T00560055  RH  099%=      5-min Rain = 0
KLA1 071927Z 34008KT 06/06 A3036 RMK A01 T00560055  RH  099%=      5-min Rain = 0
KLA1 071928Z 33008G14KT 06/06 A3036 RMK A01 T00560055  RH  099%=      5-min Rain = 0
KLA1 071929Z 33011G18KT 06/06 A3036 RMK A01 T00560055  RH  099%=      5-min Rain = 0
KLA1 071930Z 35010KT 06/05 A3036 RMK A01 T00560054  RH  099%=      5-min Rain = 0
KLA1 071931Z 34011G16KT 06/05 A3036 RMK A01 T00550053  RH  098%=      5-min Rain = 0
KLA1 071932Z 34014KT 06/05 A3036 RMK A01 T00550053  RH  098%=      5-min Rain = 0
KLA1 071933Z 34010KT 06/05 A3035 RMK A01 T00550053  RH  098%=      5-min Rain = 0
KLA1 071934Z 33009KT 06/05 A3036 RMK A01 T00550053  RH  099%=      5-min Rain = 0
KLA1 071935Z 33009KT 06/05 A3035 RMK A01 T00550054  RH  099%=      5-min Rain = 0
KLA1 071936Z 35013KT 06/05 A3036 RMK A01 T00550054  RH  099%=      5-min Rain = 0
KLA1 071937Z 34009KT 06/06 A3035 RMK A01 T00560055  RH  099%=      5-min Rain = 0
KLA1 071938Z 34008KT 06/06 A3035 RMK A01 T00560055  RH  100%=      5-min Rain = 0
KLA1 071939Z 34009KT 06/06 A3035 RMK A01 T00560055  RH  099%=      5-min Rain = 0
KLA1 071940Z 35009KT 06/06 A3035 RMK A01 T00560055  RH  099%=      5-min Rain = 0
KLA1 071941Z 33011G16KT 06/06 A3035 RMK A01 T00560055  RH  100%=      5-min Rain = 0
KLA1 071942Z 34010KT 06/06 A3035 RMK A01 T00560055  RH  099%=      5-min Rain = 0
KLA1 071943Z 34009KT 06/06 A3035 RMK A01 T00560056  RH  100%=      5-min Rain = 0
KLA1 071944Z 34009KT 06/06 A3035 RMK A01 T00570057  RH  100%=      5-min Rain = 0
KLA1 071945Z 35010KT 06/06 A3035 RMK A01 T00570056  RH  100%=      5-min Rain = 0
KLA1 071946Z 35009G14KT 06/06 A3035 RMK A01 T00560056  RH  100%=      5-min Rain = 0
KLA1 071947Z 35012KT 06/06 A3035 RMK A01 T00570057  RH  100%=      5-min Rain = 0
KLA1 071948Z 34009KT 06/06 A3035 RMK A01 T00570057  RH  100%=      5-min Rain = 0
KLA1 071949Z 34009KT 06/06 A3035 RMK A01 T00570057  RH  100%=      5-min Rain = 0
KLA1 071950Z 34009KT 06/06 A3035 RMK A01 T00570057  RH  100%=      5-min Rain = 0
KLA1 071951Z 33008KT 06/06 A3035 RMK A01 T00570057  RH  100%=      5-min Rain = 0
KLA1 071952Z 32010KT 06/06 A3035 RMK A01 T00580057  RH  100%=      5-min Rain = 0
KLA1 071953Z 33009KT 06/06 A3035 RMK A01 T00580057  RH  100%=      5-min Rain = 0
KLA1 071954Z 31010G16KT 06/06 A3035 RMK A01 T00580058  RH  100%=      5-min Rain = 0
KLA1 071955Z 31011KT 06/06 A3035 RMK A01 T00580058  RH  100%=      5-min Rain = 0
KLA1 071956Z 32010KT 06/06 A3035 RMK A01 T00580058  RH  100%=      5-min Rain = 0
KLA1 071957Z 32008KT 06/06 A3035 RMK A01 T00580058  RH  100%=      5-min Rain = 0
KLA1 071958Z 32009KT 06/06 A3035 RMK A01 T00580058  RH  100%=      5-min Rain = 0
KLA1 071959Z 31013KT 06/06 A3035 RMK A01 T00580058  RH  100%=      5-min Rain = 0
KLA1 072000Z 32011G16KT 06/06 A3035 RMK A01 T00570057  RH  100%=      5-min Rain = 0
KLA1 072001Z 31012KT 06/06 A3035 RMK A01 T00570057  RH  100%=      5-min Rain = 0
KLA1 072002Z 32010KT 06/06 A3035 RMK A01 T00570057  RH  100%=      5-min Rain = 0
KLA1 072003Z 32009KT 06/06 A3035 RMK A01 T00570057  RH  100%=      5-min Rain = 0
KLA1 072004Z 32011KT 06/06 A3035 RMK A01 T00580058  RH  100%=      5-min Rain = 0
KLA1 072005Z 34008KT 06/06 A3035 RMK A01 T00580058  RH  100%=      5-min Rain = 0
KLA1 072006Z 34009KT 06/06 A3035 RMK A01 T00580057  RH  099%=      5-min Rain = 0
KLA1 072007Z 35011KT 06/06 A3035 RMK A01 T00580056  RH  099%=      5-min Rain = 0
KLA1 072008Z 34010G15KT 06/06 A3035 RMK A01 T00580055  RH  098%=      5-min Rain = 0
KLA1 072009Z 34007KT 06/06 A3035 RMK A01 T00580055  RH  098%=      5-min Rain = 0
KLA1 072010Z 34007KT 06/06 A3035 RMK A01 T00580056  RH  099%=      5-min Rain = 0
KLA1 072011Z 34007KT 06/06 A3035 RMK A01 T00580056  RH  099%=      5-min Rain = 0
KLA1 072012Z 35007KT 06/06 A3035 RMK A01 T00580056  RH  099%=      5-min Rain = 0
KLA1 072013Z 34007KT 06/06 A3035 RMK A01 T00580057  RH  099%=      5-min Rain = 0
KLA1 072014Z 32007KT 06/06 A3035 RMK A01 T00580057  RH  099%=      5-min Rain = 0
KLA1 072015Z 33010KT 06/06 A3035 RMK A01 T00580058  RH  099%=      5-min Rain = 0
KLA1 072016Z 34006KT 06/06 A3035 RMK A01 T00580056  RH  099%=      5-min Rain = 0
KLA1 072017Z 35006KT 06/06 A3035 RMK A01 T00580057  RH  099%=      5-min Rain = 0
KLA1 072018Z 33009KT 06/06 A3035 RMK A01 T00580057  RH  099%=      5-min Rain = 0
KLA1 072019Z 34008KT 06/06 A3035 RMK A01 T00580055  RH  098%=      5-min Rain = 0
KLA1 072020Z 34008KT 06/06 A3035 RMK A01 T00580055  RH  098%=      5-min Rain = 0
KLA1 072021Z 33007KT 06/06 A3035 RMK A01 T00580056  RH  099%=      5-min Rain = 0
KLA1 072022Z 33006KT 06/06 A3035 RMK A01 T00580056  RH  099%=      5-min Rain = 0
KLA1 072023Z 33007KT 06/06 A3035 RMK A01 T00580056  RH  099%=      5-min Rain = 0
KLA1 072024Z 33006KT 06/06 A3035 RMK A01 T00580057  RH  099%=      5-min Rain = 0
KLA1 072025Z 33005KT 06/06 A3035 RMK A01 T00580057  RH  100%=      5-min Rain = 0
KLA1 072026Z 33006KT 06/06 A3035 RMK A01 T00570057  RH  100%=      5-min Rain = 0
KLA1 072027Z 32008KT 06/06 A3035 RMK A01 T00580058  RH  100%=      5-min Rain = 0
KLA1 072028Z 32006KT 06/06 A3035 RMK A01 T00570056  RH  099%=      5-min Rain = 0
KLA1 072029Z 33008G13KT 06/06 A3035 RMK A01 T00570057  RH  100%=      5-min Rain = 0
KLA1 072030Z 32010G15KT 06/06 A3035 RMK A01 T00570057  RH  100%=      5-min Rain = 0
KLA1 072031Z 33008KT 06/06 A3035 RMK A01 T00570056  RH  100%=      5-min Rain = 0
KLA1 072032Z 34006KT 06/06 A3035 RMK A01 T00560056  RH  100%=      5-min Rain = 0
KLA1 072033Z 31008G15KT 06/06 A3035 RMK A01 T00560056  RH  100%=      5-min Rain = 0
KLA1 072034Z 33006KT 06/06 A3035 RMK A01 T00560056  RH  100%=      5-min Rain = 0
KLA1 072035Z 32008KT 06/06 A3035 RMK A01 T00560056  RH  100%=      5-min Rain = 0
KLA1 072036Z 33007KT 06/06 A3035 RMK A01 T00560056  RH  100%=      5-min Rain = 0
KLA1 072037Z 33009KT 06/06 A3035 RMK A01 T00560056  RH  100%=      5-min Rain = 0
KLA1 072038Z 34010G15KT 06/06 A3035 RMK A01 T00560055  RH  099%=      5-min Rain = 0
KLA1 072039Z 33007KT 06/05 A3035 RMK A01 T00550053  RH  099%=      5-min Rain = 0
KLA1 072040Z 32008KT 06/05 A3035 RMK A01 T00550052  RH  098%=      5-min Rain = 0
KLA1 072041Z 33007KT 06/05 A3035 RMK A01 T00550053  RH  099%=      5-min Rain = 0
KLA1 072042Z 32010KT 06/05 A3035 RMK A01 T00550052  RH  098%=      5-min Rain = 0
KLA1 072043Z 34008KT 05/05 A3035 RMK A01 T00540051  RH  098%=      5-min Rain = 0
KLA1 072044Z 33007KT 06/05 A3035 RMK A01 T00550053  RH  098%=      5-min Rain = 0
KLA1 072045Z 35008KT 06/05 A3035 RMK A01 T00550054  RH  099%=      5-min Rain = 0
KLA1 072046Z 34009KT 06/05 A3035 RMK A01 T00550052  RH  098%=      5-min Rain = 0
KLA1 072047Z 33006KT 06/05 A3035 RMK A01 T00550052  RH  098%=      5-min Rain = 0
KLA1 072048Z 34007KT 06/05 A3035 RMK A01 T00550053  RH  099%=      5-min Rain = 0
KLA1 072049Z 36010KT 06/05 A3036 RMK A01 T00550054  RH  099%=      5-min Rain = 0
KLA1 072050Z 34008KT 06/05 A3036 RMK A01 T00550054  RH  099%=      5-min Rain = 0
KLA1 072051Z 34009KT 06/05 A3035 RMK A01 T00550054  RH  099%=      5-min Rain = 0
KLA1 072052Z 34008KT 06/05 A3035 RMK A01 T00550053  RH  099%=      5-min Rain = 0
KLA1 072053Z 34011G16KT 06/05 A3035 RMK A01 T00550053  RH  099%=      5-min Rain = 0
KLA1 072054Z 35007KT 05/05 A3035 RMK A01 T00540054  RH  099%=      5-min Rain = 0
KLA1 072055Z 35009KT 06/05 A3035 RMK A01 T00550054  RH  100%=      5-min Rain = 0
KLA1 072056Z 35010KT 05/05 A3034 RMK A01 T00540054  RH  100%=      5-min Rain = 0
KLA1 072057Z 35008KT 05/05 A3034 RMK A01 T00540054  RH  100%=      5-min Rain = 0
KLA1 072058Z 35011KT 05/05 A3034 RMK A01 T00540054  RH  100%=      5-min Rain = 0
KLA1 072059Z 35012KT 05/05 A3034 RMK A01 T00540054  RH  100%=      5-min Rain = 0
KLA1 072100Z 34009KT 05/05 A3035 RMK A01 T00540054  RH  100%=      5-min Rain = 0
KLA1 072101Z 34008KT 05/05 A3035 RMK A01 T00540054  RH  100%=      5-min Rain = 0
KLA1 072102Z 34007KT 05/05 A3035 RMK A01 T00540054  RH  100%=      5-min Rain = 0
KLA1 072103Z 32009G14KT 05/05 A3035 RMK A01 T00540054  RH  100%=      5-min Rain = 0
KLA1 072104Z 34007KT 05/05 A3035 RMK A01 T00540054  RH  100%=      5-min Rain = 0
KLA1 072105Z 33006KT 05/05 A3035 RMK A01 T00540054  RH  100%=      5-min Rain = 0
KLA1 072106Z 33008G15KT 06/06 A3035 RMK A01 T00550055  RH  100%=      5-min Rain = 0
KLA1 072107Z 32011KT 06/05 A3035 RMK A01 T00550053  RH  099%=      5-min Rain = 0
KLA1 072108Z 32009KT 05/05 A3035 RMK A01 T00540052  RH  099%=      5-min Rain = 0
KLA1 072109Z 32008KT 05/05 A3035 RMK A01 T00540052  RH  099%=      5-min Rain = 0
KLA1 072110Z 32011G16KT 05/05 A3036 RMK A01 T00540053  RH  099%=      5-min Rain = 0
KLA1 072111Z 32011KT 05/05 A3036 RMK A01 T00540052  RH  099%=      5-min Rain = 0
KLA1 072112Z 32010G15KT 05/05 A3036 RMK A01 T00540051  RH  098%=      5-min Rain = 0
KLA1 072113Z 33009KT 05/05 A3036 RMK A01 T00530050  RH  098%=      5-min Rain = 0
KLA1 072114Z 33008KT 05/05 A3036 RMK A01 T00540050  RH  098%=      5-min Rain = 0
KLA1 072115Z 31012KT 05/05 A3036 RMK A01 T00540050  RH  098%=      5-min Rain = 0
KLA1 072116Z 31010G15KT 05/05 A3036 RMK A01 T00540051  RH  098%=      5-min Rain = 0
KLA1 072117Z 32008G13KT 05/05 A3036 RMK A01 T00540051  RH  098%=      5-min Rain = 0
KLA1 072118Z 33009KT 05/05 A3036 RMK A01 T00540050  RH  098%=      5-min Rain = 0
KLA1 072119Z 34008KT 05/05 A3036 RMK A01 T00540050  RH  098%=      5-min Rain = 0
KLA1 072120Z 32009G14KT 05/05 A3036 RMK A01 T00540050  RH  098%=      5-min Rain = 0
KLA1 072121Z 33008KT 05/05 A3036 RMK A01 T00530050  RH  098%=      5-min Rain = 0
KLA1 072122Z 32010KT 05/05 A3036 RMK A01 T00530049  RH  097%=      5-min Rain = 0
KLA1 072123Z 32012G17KT 05/05 A3036 RMK A01 T00530048  RH  097%=      5-min Rain = 0
KLA1 072124Z 32012G19KT 05/05 A3036 RMK A01 T00530048  RH  096%=      5-min Rain = 0
KLA1 072125Z 31012KT 05/05 A3036 RMK A01 T00530047  RH  096%=      5-min Rain = 0
KLA1 072126Z 32014KT 05/05 A3036 RMK A01 T00530046  RH  095%=      5-min Rain = 0
KLA1 072127Z 31010KT 05/05 A3036 RMK A01 T00530046  RH  095%=      5-min Rain = 0
KLA1 072128Z 32012KT 05/05 A3036 RMK A01 T00530046  RH  095%=      5-min Rain = 0
KLA1 072129Z 33010G16KT 05/05 A3037 RMK A01 T00530047  RH  095%=      5-min Rain = 0
KLA1 072130Z 32012KT 05/05 A3037 RMK A01 T00540046  RH  095%=      5-min Rain = 0
KLA1 072131Z 32011KT 05/05 A3037 RMK A01 T00530046  RH  095%=      5-min Rain = 0
KLA1 072132Z 33011G17KT 05/05 A3037 RMK A01 T00540046  RH  095%=      5-min Rain = 0
KLA1 072133Z 31009G14KT 05/05 A3037 RMK A01 T00540046  RH  095%=      5-min Rain = 0
KLA1 072134Z 33010KT 05/05 A3037 RMK A01 T00540046  RH  095%=      5-min Rain = 0
KLA1 072135Z 32010KT 05/05 A3037 RMK A01 T00530047  RH  096%=      5-min Rain = 0
KLA1 072136Z 32008KT 05/05 A3037 RMK A01 T00530047  RH  096%=      5-min Rain = 0
KLA1 072137Z 32006KT 05/05 A3037 RMK A01 T00540047  RH  095%=      5-min Rain = 0
KLA1 072138Z 33008KT 05/05 A3037 RMK A01 T00540047  RH  095%=      5-min Rain = 0
KLA1 072139Z 32012KT 05/05 A3037 RMK A01 T00540046  RH  094%=      5-min Rain = 0
KLA1 072140Z 32011KT 05/04 A3036 RMK A01 T00540044  RH  093%=      5-min Rain = 0
KLA1 072141Z 35008KT 05/04 A3036 RMK A01 T00540043  RH  092%=      5-min Rain = 0
KLA1 072142Z 35008KT 05/04 A3036 RMK A01 T00540043  RH  093%=      5-min Rain = 0
KLA1 072143Z 34009KT 06/04 A3036 RMK A01 T00550044  RH  093%=      5-min Rain = 0
KLA1 072144Z 34009KT 06/04 A3036 RMK A01 T00550043  RH  092%=      5-min Rain = 0
KLA1 072145Z 34007KT 06/04 A3036 RMK A01 T00550043  RH  092%=      5-min Rain = 0
KLA1 072146Z 33007KT 06/04 A3036 RMK A01 T00550044  RH  093%=      5-min Rain = 0
KLA1 072147Z 34006KT 06/05 A3036 RMK A01 T00550045  RH  093%=      5-min Rain = 0
KLA1 072148Z 34008KT 06/05 A3036 RMK A01 T00560045  RH  093%=      5-min Rain = 0
KLA1 072149Z 33007KT 06/04 A3036 RMK A01 T00550044  RH  093%=      5-min Rain = 0
KLA1 072150Z 32008KT 06/05 A3036 RMK A01 T00550045  RH  093%=      5-min Rain = 0
KLA1 072151Z 32010G15KT 06/05 A3036 RMK A01 T00550045  RH  093%=      5-min Rain = 0
KLA1 072152Z 35007KT 06/05 A3036 RMK A01 T00550045  RH  093%=      5-min Rain = 0
KLA1 072153Z 34006KT 06/05 A3036 RMK A01 T00550045  RH  094%=      5-min Rain = 0
KLA1 072154Z 34011KT 06/05 A3036 RMK A01 T00550045  RH  094%=      5-min Rain = 0
KLA1 072155Z 35008KT 06/05 A3036 RMK A01 T00550046  RH  094%=      5-min Rain = 0
KLA1 072156Z 34008KT 05/05 A3036 RMK A01 T00540046  RH  094%=      5-min Rain = 0
KLA1 072157Z 34007KT 05/05 A3036 RMK A01 T00540047  RH  095%=      5-min Rain = 0
KLA1 072158Z 33008KT 06/05 A3036 RMK A01 T00550048  RH  096%=      5-min Rain = 0
KLA1 072159Z 34007KT 05/05 A3036 RMK A01 T00540049  RH  096%=      5-min Rain = 0
KLA1 072200Z 34006KT 06/05 A3036 RMK A01 T00550049  RH  096%=      5-min Rain = 0
KLA1 072201Z 34005G10KT 05/05 A3036 RMK A01 T00540050  RH  097%=      5-min Rain = 0
KLA1 072202Z 34009KT 05/05 A3036 RMK A01 T00540050  RH  097%=      5-min Rain = 0
KLA1 072203Z 34008KT 06/05 A3036 RMK A01 T00550050  RH  097%=      5-min Rain = 0
KLA1 072204Z 34010KT 05/05 A3036 RMK A01 T00540050  RH  097%=      5-min Rain = 0
KLA1 072205Z 34010KT 06/05 A3036 RMK A01 T00550051  RH  097%=      5-min Rain = 0
KLA1 072206Z 34008G14KT 05/05 A3036 RMK A01 T00540051  RH  098%=      5-min Rain = 0
KLA1 072207Z 34011KT 05/05 A3036 RMK A01 T00540052  RH  098%=      5-min Rain = 0
KLA1 072208Z 33010KT 06/05 A3036 RMK A01 T00550052  RH  098%=      5-min Rain = 0
KLA1 072209Z 33007KT 06/05 A3036 RMK A01 T00550053  RH  099%=      5-min Rain = 0
KLA1 072210Z 34008KT 05/05 A3036 RMK A01 T00540053  RH  099%=      5-min Rain = 0
KLA1 072211Z 34008KT 06/05 A3036 RMK A01 T00550054  RH  099%=      5-min Rain = 0
KLA1 072212Z 34007KT 06/05 A3036 RMK A01 T00550054  RH  100%=      5-min Rain = 0
KLA1 072213Z 33006KT 06/06 A3036 RMK A01 T00550055  RH  100%=      5-min Rain = 0
KLA1 072214Z 34008KT 06/06 A3036 RMK A01 T00560056  RH  100%=      5-min Rain = 0
KLA1 072215Z 32010KT 06/06 A3036 RMK A01 T00550055  RH  100%=      5-min Rain = 0
KLA1 072216Z 34009KT 06/06 A3036 RMK A01 T00550055  RH  100%=      5-min Rain = 0
KLA1 072217Z 33008KT 06/05 A3036 RMK A01 T00550054  RH  099%=      5-min Rain = 0
KLA1 072218Z 32009KT 06/05 A3036 RMK A01 T00550053  RH  098%=      5-min Rain = 0
KLA1 072219Z 33010KT 06/05 A3036 RMK A01 T00550052  RH  098%=      5-min Rain = 0
KLA1 072220Z 33011G16KT 06/05 A3036 RMK A01 T00550050  RH  096%=      5-min Rain = 0
KLA1 072221Z 33009KT 05/05 A3036 RMK A01 T00540048  RH  096%=      5-min Rain = 0
KLA1 072222Z 32012KT 06/05 A3036 RMK A01 T00550048  RH  095%=      5-min Rain = 0
KLA1 072223Z 32010G15KT 05/05 A3037 RMK A01 T00540047  RH  095%=      5-min Rain = 0
KLA1 072224Z 33011KT 05/05 A3037 RMK A01 T00540047  RH  095%=      5-min Rain = 0
KLA1 072225Z 32011KT 05/05 A3037 RMK A01 T00540047  RH  095%=      5-min Rain = 0
KLA1 072226Z 32013KT 05/05 A3037 RMK A01 T00540047  RH  095%=      5-min Rain = 0
KLA1 072227Z 32011KT 05/05 A3037 RMK A01 T00540046  RH  095%=      5-min Rain = 0
KLA1 072228Z 33009KT 05/05 A3037 RMK A01 T00530046  RH  095%=      5-min Rain = 0
KLA1 072229Z 32010KT 05/05 A3037 RMK A01 T00540047  RH  096%=      5-min Rain = 0
KLA1 072230Z 32010KT 05/05 A3037 RMK A01 T00540048  RH  096%=      5-min Rain = 0
KLA1 072231Z 33008KT 05/05 A3037 RMK A01 T00530047  RH  096%=      5-min Rain = 0
KLA1 072232Z 33010KT 05/05 A3037 RMK A01 T00530048  RH  097%=      5-min Rain = 0
KLA1 072233Z 32012G18KT 05/05 A3037 RMK A01 T00530047  RH  096%=      5-min Rain = 0
KLA1 072234Z 33008G14KT 05/05 A3037 RMK A01 T00520046  RH  096%=      5-min Rain = 0
KLA1 072235Z 33009G16KT 05/05 A3037 RMK A01 T00520047  RH  096%=      5-min Rain = 0
KLA1 072236Z 33012KT 05/05 A3037 RMK A01 T00520046  RH  096%=      5-min Rain = 0
KLA1 072237Z 32010G16KT 05/05 A3037 RMK A01 T00520045  RH  095%=      5-min Rain = 0
KLA1 072238Z 33009G15KT 05/04 A3037 RMK A01 T00520044  RH  095%=      5-min Rain = 0
KLA1 072239Z 33009KT 05/04 A3037 RMK A01 T00520044  RH  095%=      5-min Rain = 0
KLA1 072240Z 33008G13KT 05/04 A3037 RMK A01 T00520044  RH  094%=      5-min Rain = 0
KLA1 072241Z 32011KT 05/04 A3037 RMK A01 T00520044  RH  094%=      5-min Rain = 0
KLA1 072242Z 31012KT 05/04 A3037 RMK A01 T00520043  RH  094%=      5-min Rain = 0
KLA1 072243Z 34008KT 05/04 A3037 RMK A01 T00520043  RH  094%=      5-min Rain = 0
KLA1 072244Z 33008KT 05/04 A3037 RMK A01 T00520044  RH  094%=      5-min Rain = 0
KLA1 072245Z 33008KT 05/04 A3037 RMK A01 T00520044  RH  094%=      5-min Rain = 0
KLA1 072246Z 32009KT 05/04 A3037 RMK A01 T00520043  RH  094%=      5-min Rain = 0
KLA1 072247Z 33009KT 05/04 A3037 RMK A01 T00520043  RH  094%=      5-min Rain = 0
KLA1 072248Z 34010G18KT 05/04 A3037 RMK A01 T00520043  RH  094%=      5-min Rain = 0
KLA1 072249Z 33008KT 05/04 A3037 RMK A01 T00520043  RH  094%=      5-min Rain = 0
KLA1 072250Z 33008G14KT 05/04 A3037 RMK A01 T00520042  RH  093%=      5-min Rain = 0
KLA1 072251Z 32010G16KT 05/04 A3037 RMK A01 T00520041  RH  093%=      5-min Rain = 0
KLA1 072252Z 34014KT 05/04 A3037 RMK A01 T00520040  RH  092%=      5-min Rain = 0
KLA1 072253Z 34009KT 05/04 A3037 RMK A01 T00520039  RH  091%=      5-min Rain = 0
KLA1 072254Z 33011G16KT 05/04 A3037 RMK A01 T00520040  RH  092%=      5-min Rain = 0
KLA1 072255Z 32012G17KT 05/04 A3037 RMK A01 T00520039  RH  092%=      5-min Rain = 0
KLA1 072256Z 33011KT 05/04 A3037 RMK A01 T00520039  RH  092%=      5-min Rain = 0
KLA1 072257Z 34009KT 05/04 A3037 RMK A01 T00520040  RH  092%=      5-min Rain = 0
KLA1 072258Z 34011KT 05/04 A3037 RMK A01 T00520040  RH  092%=      5-min Rain = 0
KLA1 072259Z 34014KT 05/04 A3037 RMK A01 T00520040  RH  092%=      5-min Rain = 0
KLA1 072300Z 33009G14KT 05/04 A3037 RMK A01 T00510039  RH  092%=      5-min Rain = 0
KLA1 072301Z 34007KT 05/04 A3037 RMK A01 T00510039  RH  092%=      5-min Rain = 0
KLA1 072302Z 35010G15KT 05/04 A3037 RMK A01 T00510039  RH  092%=      5-min Rain = 0
KLA1 072303Z 35009KT 05/04 A3037 RMK A01 T00510039  RH  092%=      5-min Rain = 0
KLA1 072304Z 35010KT 05/04 A3037 RMK A01 T00510039  RH  092%=      5-min Rain = 0
KLA1 072305Z 34008KT 05/04 A3037 RMK A01 T00510039  RH  092%=      5-min Rain = 0
KLA1 072306Z 35012G18KT 05/04 A3037 RMK A01 T00510039  RH  092%=      5-min Rain = 0
KLA1 072307Z 34007KT 05/04 A3037 RMK A01 T00510039  RH  092%=      5-min Rain = 0
KLA1 072308Z 33008KT 05/04 A3038 RMK A01 T00510040  RH  093%=      5-min Rain = 0
KLA1 072309Z 34006KT 05/04 A3038 RMK A01 T00510041  RH  093%=      5-min Rain = 0
KLA1 072310Z 33006KT 05/04 A3038 RMK A01 T00510042  RH  094%=      5-min Rain = 0
KLA1 072311Z 32010G15KT 05/04 A3038 RMK A01 T00510041  RH  093%=      5-min Rain = 0
KLA1 072312Z 32007KT 05/04 A3038 RMK A01 T00510040  RH  093%=      5-min Rain = 0
KLA1 072313Z 33009G14KT 05/04 A3038 RMK A01 T00510040  RH  093%=      5-min Rain = 0
KLA1 072314Z 35011G17KT 05/04 A3038 RMK A01 T00520040  RH  092%=      5-min Rain = 0
KLA1 072315Z 32009G17KT 05/04 A3038 RMK A01 T00520040  RH  092%=      5-min Rain = 0
KLA1 072316Z 33008KT 05/04 A3038 RMK A01 T00520040  RH  092%=      5-min Rain = 0
KLA1 072317Z 34010KT 05/04 A3038 RMK A01 T00520040  RH  092%=      5-min Rain = 0
KLA1 072318Z 33010KT 05/04 A3038 RMK A01 T00520039  RH  092%=      5-min Rain = 0
KLA1 072319Z 34007KT 05/04 A3038 RMK A01 T00520039  RH  091%=      5-min Rain = 0
KLA1 072320Z 34008KT 05/04 A3038 RMK A01 T00520040  RH  092%=      5-min Rain = 0
KLA1 072321Z 34009KT 05/04 A3038 RMK A01 T00520040  RH  092%=      5-min Rain = 0
KLA1 072322Z 33008KT 05/04 A3038 RMK A01 T00520040  RH  092%=      5-min Rain = 0
KLA1 072323Z 33006KT 05/04 A3038 RMK A01 T00520040  RH  092%=      5-min Rain = 0
KLA1 072324Z 34009KT 05/04 A3038 RMK A01 T00520041  RH  092%=      5-min Rain = 0
KLA1 072325Z 34008KT 05/04 A3038 RMK A01 T00520041  RH  093%=      5-min Rain = 0
KLA1 072326Z 33009KT 05/04 A3038 RMK A01 T00520041  RH  093%=      5-min Rain = 0
KLA1 072327Z 34006KT 05/04 A3038 RMK A01 T00520041  RH  093%=      5-min Rain = 0
KLA1 072328Z 33007KT 05/04 A3038 RMK A01 T00520042  RH  093%=      5-min Rain = 0
KLA1 072329Z 32008KT 05/04 A3038 RMK A01 T00520042  RH  093%=      5-min Rain = 0
KLA1 072330Z 34010G18KT 05/04 A3038 RMK A01 T00520042  RH  093%=      5-min Rain = 0
KLA1 072331Z 33010KT 05/04 A3038 RMK A01 T00520041  RH  093%=      5-min Rain = 0
KLA1 072332Z 34009KT 05/04 A3038 RMK A01 T00520041  RH  093%=      5-min Rain = 0
KLA1 072333Z 33011G16KT 05/04 A3038 RMK A01 T00530041  RH  092%=      5-min Rain = 0
KLA1 072334Z 33010G16KT 05/04 A3038 RMK A01 T00530041  RH  092%=      5-min Rain = 0
KLA1 072335Z 33011KT 05/04 A3038 RMK A01 T00530041  RH  092%=      5-min Rain = 0
KLA1 072336Z 34008KT 05/04 A3038 RMK A01 T00530040  RH  092%=      5-min Rain = 0
KLA1 072337Z 33009KT 05/04 A3038 RMK A01 T00530040  RH  092%=      5-min Rain = 0
KLA1 072338Z 33008KT 05/04 A3038 RMK A01 T00530040  RH  091%=      5-min Rain = 0
KLA1 072339Z 32009KT 05/04 A3038 RMK A01 T00520040  RH  091%=      5-min Rain = 0
KLA1 072340Z 32011G16KT 05/04 A3038 RMK A01 T00530039  RH  091%=      5-min Rain = 0
KLA1 072341Z 32008KT 05/04 A3038 RMK A01 T00530039  RH  091%=      5-min Rain = 0
KLA1 072342Z 33011KT 05/04 A3039 RMK A01 T00530039  RH  091%=      5-min Rain = 0
KLA1 072343Z 33011KT 05/04 A3039 RMK A01 T00530039  RH  091%=      5-min Rain = 0
KLA1 072344Z 32014G19KT 05/04 A3039 RMK A01 T00530038  RH  090%=      5-min Rain = 0
KLA1 072345Z 33010G17KT 05/04 A3039 RMK A01 T00520038  RH  090%=      5-min Rain = 0
KLA1 072346Z 33010G18KT 05/04 A3039 RMK A01 T00520038  RH  091%=      5-min Rain = 0
KLA1 072347Z 34012G19KT 05/04 A3039 RMK A01 T00520038  RH  091%=      5-min Rain = 0
KLA1 072348Z 35011G19KT 05/04 A3039 RMK A01 T00520038  RH  091%=      5-min Rain = 0
KLA1 072349Z 35010KT 05/04 A3039 RMK A01 T00520039  RH  091%=      5-min Rain = 0
KLA1 072350Z 35010KT 05/04 A3039 RMK A01 T00520039  RH  091%=      5-min Rain = 0
KLA1 072351Z 35010KT 05/04 A3039 RMK A01 T00520039  RH  091%=      5-min Rain = 0
KLA1 072352Z 34009G14KT 05/04 A3039 RMK A01 T00520039  RH  091%=      5-min Rain = 0
KLA1 072353Z 32010G15KT 05/04 A3039 RMK A01 T00520039  RH  092%=      5-min Rain = 0
KLA1 072354Z 31010G15KT 05/04 A3039 RMK A01 T00520040  RH  092%=      5-min Rain = 0
KLA1 072355Z 32008KT 05/04 A3039 RMK A01 T00520040  RH  092%=      5-min Rain = 0
KLA1 072356Z 34007KT 05/04 A3039 RMK A01 T00520040  RH  092%=      5-min Rain = 0
KLA1 072357Z 31010KT 05/04 A3039 RMK A01 T00520040  RH  092%=      5-min Rain = 0
KLA1 072358Z 33010G15KT 05/04 A3039 RMK A01 T00520039  RH  092%=      5-min Rain = 0
KLA1 072359Z 34013G18KT 05/04 A3039 RMK A01 T00520039  RH  091%=      5-min Rain = 0
KLA1 080000Z 34012KT 05/04 A3039 RMK A01 T00520038  RH  091%=      5-min Rain = 0
KLA1 080001Z 34010KT 05/04 A3039 RMK A01 T00520038  RH  091%=      5-min Rain = 0
KLA1 080002Z 34010KT 05/04 A3039 RMK A01 T00520039  RH  091%=      5-min Rain = 0
KLA1 080003Z 35010KT 05/04 A3039 RMK A01 T00520038  RH  091%=      5-min Rain = 0
KLA1 080004Z 33008KT 05/04 A304 RMK A01 T00510038  RH  091%=      5-min Rain = 0
KLA1 080005Z 34005KT 05/04 A304 RMK A01 T00510039  RH  092%=      5-min Rain = 0
KLA1 080006Z 34005KT 05/04 A304 RMK A01 T00510040  RH  092%=      5-min Rain = 0
KLA1 080007Z 34008KT 05/04 A3039 RMK A01 T00510039  RH  092%=      5-min Rain = 0
KLA1 080008Z 35007KT 05/04 A3039 RMK A01 T00510040  RH  092%=      5-min Rain = 0
KLA1 080009Z 34007KT 05/04 A3039 RMK A01 T00510040  RH  092%=      5-min Rain = 0
KLA1 080010Z 34008KT 05/04 A3039 RMK A01 T00510040  RH  092%=      5-min Rain = 0
KLA1 080011Z 35008KT 05/04 A3039 RMK A01 T00510040  RH  092%=      5-min Rain = 0
KLA1 080012Z 34008G13KT 05/04 A3039 RMK A01 T00510040  RH  092%=      5-min Rain = 0
KLA1 080013Z 31009KT 05/04 A3039 RMK A01 T00510040  RH  092%=      5-min Rain = 0
KLA1 080014Z 33010KT 05/04 A3039 RMK A01 T00510039  RH  092%=      5-min Rain = 0
KLA1 080015Z 34006KT 05/04 A3039 RMK A01 T00510039  RH  092%=      5-min Rain = 0
KLA1 080016Z 34007KT 05/04 A3039 RMK A01 T00520039  RH  092%=      5-min Rain = 0
KLA1 080017Z 34005KT 05/04 A3039 RMK A01 T00520039  RH  092%=      5-min Rain = 0
KLA1 080018Z 34007KT 05/04 A3039 RMK A01 T00520040  RH  092%=      5-min Rain = 0
KLA1 080019Z 34007KT 05/04 A3039 RMK A01 T00520040  RH  092%=      5-min Rain = 0
KLA1 080020Z 32006KT 05/04 A3039 RMK A01 T00520040  RH  092%=      5-min Rain = 0
KLA1 080021Z 34004KT 05/04 A3039 RMK A01 T00520040  RH  092%=      5-min Rain = 0
KLA1 080022Z 33004KT 05/04 A3039 RMK A01 T00520041  RH  093%=      5-min Rain = 0
KLA1 080023Z 34007KT 05/04 A3039 RMK A01 T00520041  RH  093%=      5-min Rain = 0
KLA1 080024Z 35010KT 05/04 A3039 RMK A01 T00520041  RH  092%=      5-min Rain = 0
KLA1 080025Z 35009KT 05/04 A3039 RMK A01 T00520040  RH  092%=      5-min Rain = 0
KLA1 080026Z 34009G14KT 05/04 A3039 RMK A01 T00510039  RH  092%=      5-min Rain = 0
KLA1 080027Z 33010KT 05/04 A304 RMK A01 T00520039  RH  091%=      5-min Rain = 0
KLA1 080028Z 32008KT 05/04 A304 RMK A01 T00510038  RH  091%=      5-min Rain = 0
KLA1 080029Z 34007KT 05/04 A304 RMK A01 T00510039  RH  092%=      5-min Rain = 0
KLA1 080030Z 33009KT 05/04 A304 RMK A01 T00510039  RH  092%=      5-min Rain = 0
KLA1 080031Z 33008KT 05/04 A304 RMK A01 T00510039  RH  092%=      5-min Rain = 0
KLA1 080032Z 32009KT 05/04 A304 RMK A01 T00510038  RH  092%=      5-min Rain = 0
KLA1 080033Z 33008KT 05/04 A304 RMK A01 T00510038  RH  092%=      5-min Rain = 0
KLA1 080034Z 32008KT 05/04 A304 RMK A01 T00510039  RH  092%=      5-min Rain = 0
KLA1 080035Z 35009KT 05/04 A304 RMK A01 T00500039  RH  092%=      5-min Rain = 0
KLA1 080036Z 32009KT 05/04 A304 RMK A01 T00500038  RH  092%=      5-min Rain = 0
KLA1 080037Z 32010KT 05/04 A304 RMK A01 T00500038  RH  092%=      5-min Rain = 0
KLA1 080038Z 32009KT 05/04 A304 RMK A01 T00500038  RH  092%=      5-min Rain = 0
KLA1 080039Z 32009KT 05/04 A304 RMK A01 T00500039  RH  093%=      5-min Rain = 0
KLA1 080040Z 33013KT 05/04 A304 RMK A01 T00500039  RH  093%=      5-min Rain = 0
KLA1 080041Z 33011KT 05/04 A304 RMK A01 T00490038  RH  092%=      5-min Rain = 0
KLA1 080042Z 32012KT 05/04 A304 RMK A01 T00500038  RH  092%=      5-min Rain = 0
KLA1 080043Z 32011G16KT 05/04 A3041 RMK A01 T00490037  RH  092%=      5-min Rain = 0
KLA1 080044Z 32011KT 05/04 A3041 RMK A01 T00490038  RH  092%=      5-min Rain = 0
KLA1 080045Z 32012KT 05/04 A3041 RMK A01 T00490037  RH  092%=      5-min Rain = 0
KLA1 080046Z 34007KT 05/04 A3041 RMK A01 T00490038  RH  092%=      5-min Rain = 0
KLA1 080047Z 32010KT 05/04 A3041 RMK A01 T00490038  RH  093%=      5-min Rain = 0
KLA1 080048Z 33008KT 05/04 A3041 RMK A01 T00490038  RH  093%=      5-min Rain = 0
KLA1 080049Z 32007KT 05/04 A3041 RMK A01 T00490039  RH  093%=      5-min Rain = 0
KLA1 080050Z 32011KT 05/04 A3041 RMK A01 T00490038  RH  093%=      5-min Rain = 0
KLA1 080051Z 33010KT 05/04 A3041 RMK A01 T00490038  RH  093%=      5-min Rain = 0
KLA1 080052Z 33008KT 05/04 A3041 RMK A01 T00490038  RH  093%=      5-min Rain = 0
KLA1 080053Z 34008KT 05/04 A3041 RMK A01 T00490039  RH  093%=      5-min Rain = 0
KLA1 080054Z 33009KT 05/04 A3041 RMK A01 T00490039  RH  093%=      5-min Rain = 0
KLA1 080055Z 33009KT 05/04 A3041 RMK A01 T00490039  RH  093%=      5-min Rain = 0
KLA1 080056Z 32009KT 05/04 A3041 RMK A01 T00490039  RH  093%=      5-min Rain = 0
KLA1 080057Z 32010G16KT 05/04 A3041 RMK A01 T00490039  RH  093%=      5-min Rain = 0
KLA1 080058Z 33010G15KT 05/04 A3041 RMK A01 T00490039  RH  093%=      5-min Rain = 0
KLA1 080059Z 33009KT 05/04 A3041 RMK A01 T00490039  RH  093%=      5-min Rain = 0
KLA1 080100Z 34008KT 05/04 A3041 RMK A01 T00490039  RH  093%=      5-min Rain = 0
KLA1 080101Z 34009KT 05/04 A3041 RMK A01 T00490039  RH  093%=      5-min Rain = 0
KLA1 080102Z 34005KT 05/04 A3041 RMK A01 T00490039  RH  093%=      5-min Rain = 0
KLA1 080103Z 33007G12KT 05/04 A3041 RMK A01 T00490040  RH  094%=      5-min Rain = 0
KLA1 080104Z 33009KT 05/04 A3042 RMK A01 T00490040  RH  094%=      5-min Rain = 0
KLA1 080105Z 34008KT 05/04 A3042 RMK A01 T00490040  RH  094%=      5-min Rain = 0
KLA1 080106Z 34007KT 05/04 A3042 RMK A01 T00490039  RH  093%=      5-min Rain = 0
KLA1 080107Z 35007KT 05/04 A3042 RMK A01 T00490040  RH  094%=      5-min Rain = 0
KLA1 080108Z 35007G12KT 05/04 A3042 RMK A01 T00490040  RH  094%=      5-min Rain = 0
KLA1 080109Z 34006KT 05/04 A3042 RMK A01 T00490040  RH  094%=      5-min Rain = 0
KLA1 080110Z 34006KT 05/04 A3042 RMK A01 T00490040  RH  094%=      5-min Rain = 0
KLA1 080111Z 34006KT 05/04 A3042 RMK A01 T00490040  RH  094%=      5-min Rain = 0
KLA1 080112Z 33007G13KT 05/04 A3042 RMK A01 T00490041  RH  094%=      5-min Rain = 0
KLA1 080113Z 32011G16KT 05/04 A3042 RMK A01 T00490040  RH  094%=      5-min Rain = 0
KLA1 080114Z 34007KT 05/04 A3042 RMK A01 T00490039  RH  094%=      5-min Rain = 0
KLA1 080115Z 33006KT 05/04 A3042 RMK A01 T00490040  RH  094%=      5-min Rain = 0
KLA1 080116Z 34009KT 05/04 A3042 RMK A01 T00490040  RH  094%=      5-min Rain = 0
KLA1 080117Z 35008KT 05/04 A3042 RMK A01 T00500040  RH  093%=      5-min Rain = 0
KLA1 080118Z 35010KT 05/04 A3042 RMK A01 T00490038  RH  093%=      5-min Rain = 0
KLA1 080119Z 34009KT 05/04 A3042 RMK A01 T00490038  RH  092%=      5-min Rain = 0
KLA1 080120Z 35010KT 05/04 A3042 RMK A01 T00500038  RH  092%=      5-min Rain = 0
KLA1 080121Z 35010KT 05/04 A3042 RMK A01 T00490038  RH  092%=      5-min Rain = 0
KLA1 080122Z 34007KT 05/04 A3042 RMK A01 T00490038  RH  092%=      5-min Rain = 0
KLA1 080123Z 35008KT 05/04 A3042 RMK A01 T00490038  RH  092%=      5-min Rain = 0
KLA1 080124Z 34010KT 05/04 A3042 RMK A01 T00490038  RH  092%=      5-min Rain = 0
KLA1 080125Z 35009KT 05/04 A3042 RMK A01 T00490038  RH  092%=      5-min Rain = 0
KLA1 080126Z 34009KT 05/04 A3042 RMK A01 T00490038  RH  093%=      5-min Rain = 0
KLA1 080127Z 34005KT 05/04 A3042 RMK A01 T00490038  RH  093%=      5-min Rain = 0
KLA1 080128Z 35008KT 05/04 A3042 RMK A01 T00490038  RH  093%=      5-min Rain = 0
KLA1 080129Z 35008KT 05/04 A3042 RMK A01 T00490039  RH  093%=      5-min Rain = 0
KLA1 080130Z 34008KT 05/04 A3042 RMK A01 T00490038  RH  093%=      5-min Rain = 0
KLA1 080131Z 34006KT 05/04 A3042 RMK A01 T00490038  RH  093%=      5-min Rain = 0
KLA1 080132Z 35009KT 05/04 A3042 RMK A01 T00490039  RH  093%=      5-min Rain = 0
KLA1 080133Z 35010KT 05/04 A3042 RMK A01 T00480038  RH  093%=      5-min Rain = 0
KLA1 080134Z 34011KT 05/04 A3042 RMK A01 T00490038  RH  093%=      5-min Rain = 0
KLA1 080135Z 33007G12KT 05/04 A3042 RMK A01 T00490038  RH  093%=      5-min Rain = 0
KLA1 080136Z 34009KT 05/04 A3042 RMK A01 T00490038  RH  093%=      5-min Rain = 0
KLA1 080137Z 32009KT 05/04 A3042 RMK A01 T00490039  RH  093%=      5-min Rain = 0
KLA1 080138Z 35007KT 05/04 A3042 RMK A01 T00490039  RH  093%=      5-min Rain = 0
KLA1 080139Z 35008KT 05/04 A3042 RMK A01 T00490039  RH  093%=      5-min Rain = 0
KLA1 080140Z 35007KT 05/04 A3042 RMK A01 T00490039  RH  093%=      5-min Rain = 0
KLA1 080141Z 34006KT 05/04 A3042 RMK A01 T00490039  RH  093%=      5-min Rain = 0
KLA1 080142Z 35005KT 05/04 A3042 RMK A01 T00490039  RH  094%=      5-min Rain = 0
KLA1 080143Z 34006KT 05/04 A3042 RMK A01 T00490040  RH  094%=      5-min Rain = 0
KLA1 080144Z 35008KT 05/04 A3042 RMK A01 T00490039  RH  094%=      5-min Rain = 0
KLA1 080145Z 34008KT 05/04 A3042 RMK A01 T00490039  RH  094%=      5-min Rain = 0
KLA1 080146Z 34007KT 05/04 A3042 RMK A01 T00490040  RH  094%=      5-min Rain = 0
KLA1 080147Z 33005KT 05/04 A3042 RMK A01 T00490040  RH  094%=      5-min Rain = 0
KLA1 080148Z 34007KT 05/04 A3042 RMK A01 T00490040  RH  094%=      5-min Rain = 0
KLA1 080149Z 35005KT 05/04 A3042 RMK A01 T00490040  RH  094%=      5-min Rain = 0
KLA1 080150Z 35009KT 05/04 A3042 RMK A01 T00490040  RH  094%=      5-min Rain = 0
KLA1 080151Z 35007KT 05/04 A3042 RMK A01 T00490040  RH  094%=      5-min Rain = 0
KLA1 080152Z 34008KT 05/04 A3042 RMK A01 T00490041  RH  094%=      5-min Rain = 0
KLA1 080153Z 34008KT 05/04 A3042 RMK A01 T00490040  RH  094%=      5-min Rain = 0
KLA1 080154Z 34008KT 05/04 A3042 RMK A01 T00490041  RH  094%=      5-min Rain = 0
KLA1 080155Z 34011KT 05/04 A3042 RMK A01 T00490041  RH  094%=      5-min Rain = 0
KLA1 080156Z 35011KT 05/04 A3042 RMK A01 T00490040  RH  094%=      5-min Rain = 0
KLA1 080157Z 00012KT 05/04 A3042 RMK A01 T00480040  RH  094%=      5-min Rain = 0
KLA1 080158Z 35010G15KT 05/04 A3042 RMK A01 T00480039  RH  094%=      5-min Rain = 0
KLA1 080159Z 34010KT 05/04 A3042 RMK A01 T00490040  RH  094%=      5-min Rain = 0
KLA1 080200Z 35012KT 05/04 A3042 RMK A01 T00490040  RH  094%=      5-min Rain = 0
KLA1 080201Z 34009KT 05/04 A3042 RMK A01 T00480040  RH  094%=      5-min Rain = 0
KLA1 080202Z 35009G14KT 05/04 A3042 RMK A01 T00480040  RH  094%=      5-min Rain = 0
KLA1 080203Z 34009KT 05/04 A3042 RMK A01 T00490040  RH  094%=      5-min Rain = 0
KLA1 080204Z 34011KT 05/04 A3042 RMK A01 T00490040  RH  094%=      5-min Rain = 0
KLA1 080205Z 35011KT 05/04 A3042 RMK A01 T00490040  RH  094%=      5-min Rain = 0
KLA1 080206Z 34010G15KT 05/04 A3042 RMK A01 T00480040  RH  094%=      5-min Rain = 0
KLA1 080207Z 35013KT 05/04 A3042 RMK A01 T00480040  RH  094%=      5-min Rain = 0
KLA1 080208Z 36011G16KT 05/04 A3042 RMK A01 T00480039  RH  094%=      5-min Rain = 0
KLA1 080209Z 34010G16KT 05/04 A3042 RMK A01 T00480039  RH  094%=      5-min Rain = 0
KLA1 080210Z 33008KT 05/04 A3042 RMK A01 T00480040  RH  094%=      5-min Rain = 0
KLA1 080211Z 35010KT 05/04 A3042 RMK A01 T00480040  RH  095%=      5-min Rain = 0
KLA1 080212Z 35012KT 05/04 A3042 RMK A01 T00480040  RH  095%=      5-min Rain = 0
KLA1 080213Z 35010KT 05/04 A3042 RMK A01 T00480040  RH  095%=      5-min Rain = 0
KLA1 080214Z 35010KT 05/04 A3042 RMK A01 T00480040  RH  095%=      5-min Rain = 0
KLA1 080215Z 35010KT 05/04 A3042 RMK A01 T00470040  RH  095%=      5-min Rain = 0
KLA1 080216Z 34010KT 05/04 A3042 RMK A01 T00470041  RH  096%=      5-min Rain = 0
KLA1 080217Z 34009KT 05/04 A3041 RMK A01 T00470040  RH  096%=      5-min Rain = 0
KLA1 080218Z 32009KT 05/04 A3041 RMK A01 T00470041  RH  096%=      5-min Rain = 0
KLA1 080219Z 34009KT 05/04 A3041 RMK A01 T00470041  RH  096%=      5-min Rain = 0
KLA1 080220Z 34009KT 05/04 A3041 RMK A01 T00470041  RH  096%=      5-min Rain = 0
KLA1 080221Z 34010KT 05/04 A3041 RMK A01 T00460041  RH  096%=      5-min Rain = 0
KLA1 080222Z 35009KT 05/04 A3041 RMK A01 T00460041  RH  096%=      5-min Rain = 0
KLA1 080223Z 00008KT 05/04 A3041 RMK A01 T00460041  RH  096%=      5-min Rain = 0
KLA1 080224Z 34009KT 05/04 A3041 RMK A01 T00460041  RH  096%=      5-min Rain = 0
KLA1 080225Z 35009KT 05/04 A3041 RMK A01 T00460041  RH  096%=      5-min Rain = 0
KLA1 080226Z 35009KT 05/04 A3041 RMK A01 T00460041  RH  097%=      5-min Rain = 0
KLA1 080227Z 35006KT 05/04 A3042 RMK A01 T00460041  RH  097%=      5-min Rain = 0
KLA1 080228Z 33005KT 05/04 A3042 RMK A01 T00460042  RH  097%=      5-min Rain = 0
KLA1 080229Z 34006KT 05/04 A3042 RMK A01 T00460042  RH  097%=      5-min Rain = 0
KLA1 080230Z 34005KT 05/04 A3042 RMK A01 T00460042  RH  097%=      5-min Rain = 0
KLA1 080231Z 34006KT 05/04 A3042 RMK A01 T00460042  RH  097%=      5-min Rain = 0
KLA1 080232Z 33007KT 05/04 A3042 RMK A01 T00460042  RH  097%=      5-min Rain = 0
KLA1 080233Z 33006KT 05/04 A3042 RMK A01 T00460042  RH  097%=      5-min Rain = 0
KLA1 080234Z 32008G13KT 05/04 A3042 RMK A01 T00460042  RH  097%=      5-min Rain = 0
KLA1 080235Z 34008KT 05/04 A3042 RMK A01 T00460041  RH  097%=      5-min Rain = 0
KLA1 080236Z 33008KT 05/04 A3042 RMK A01 T00460041  RH  097%=      5-min Rain = 0
KLA1 080237Z 34008KT 05/04 A3043 RMK A01 T00460041  RH  097%=      5-min Rain = 0
KLA1 080238Z 34007KT 05/04 A3043 RMK A01 T00460041  RH  097%=      5-min Rain = 0
KLA1 080239Z 35007KT 05/04 A3043 RMK A01 T00460041  RH  097%=      5-min Rain = 0
KLA1 080240Z 35007KT 05/04 A3043 RMK A01 T00470042  RH  097%=      5-min Rain = 0
KLA1 080241Z 34008G13KT 05/04 A3043 RMK A01 T00470042  RH  097%=      5-min Rain = 0
KLA1 080242Z 33007KT 05/04 A3043 RMK A01 T00470041  RH  096%=      5-min Rain = 0
KLA1 080243Z 33006KT 05/04 A3043 RMK A01 T00470042  RH  097%=      5-min Rain = 0
KLA1 080244Z 35006KT 05/04 A3043 RMK A01 T00470042  RH  097%=      5-min Rain = 0
KLA1 080245Z 35007KT 05/04 A3043 RMK A01 T00470042  RH  097%=      5-min Rain = 0
KLA1 080246Z 34008KT 05/04 A3043 RMK A01 T00470042  RH  097%=      5-min Rain = 0
KLA1 080247Z 32007KT 05/04 A3043 RMK A01 T00470042  RH  097%=      5-min Rain = 0
KLA1 080248Z 33005KT 05/04 A3043 RMK A01 T00470042  RH  097%=      5-min Rain = 0
KLA1 080249Z 32006G11KT 05/04 A3044 RMK A01 T00470043  RH  097%=      5-min Rain = 0
KLA1 080250Z 32010KT 05/04 A3044 RMK A01 T00480042  RH  096%=      5-min Rain = 0
KLA1 080251Z 33008KT 05/04 A3044 RMK A01 T00480042  RH  096%=      5-min Rain = 0
KLA1 080252Z 33007G13KT 05/04 A3044 RMK A01 T00480041  RH  096%=      5-min Rain = 0
KLA1 080253Z 32009G14KT 05/04 A3044 RMK A01 T00480041  RH  095%=      5-min Rain = 0
KLA1 080254Z 33008KT 05/04 A3044 RMK A01 T00480041  RH  095%=      5-min Rain = 0
KLA1 080255Z 34011KT 05/04 A3044 RMK A01 T00480040  RH  095%=      5-min Rain = 0
KLA1 080256Z 35010KT 05/04 A3044 RMK A01 T00480039  RH  094%=      5-min Rain = 0
KLA1 080257Z 33010KT 05/04 A3044 RMK A01 T00480038  RH  093%=      5-min Rain = 0
KLA1 080258Z 32010KT 05/04 A3045 RMK A01 T00480038  RH  093%=      5-min Rain = 0
KLA1 080259Z 32011KT 05/04 A3045 RMK A01 T00480038  RH  093%=      5-min Rain = 0
KLA1 080300Z 33008KT 05/04 A3045 RMK A01 T00480038  RH  093%=      5-min Rain = 0
KLA1 080301Z 33008KT 05/04 A3045 RMK A01 T00480038  RH  093%=      5-min Rain = 0
KLA1 080302Z 33006KT 05/04 A3045 RMK A01 T00490039  RH  093%=      5-min Rain = 0
KLA1 080303Z 32010KT 05/04 A3045 RMK A01 T00480039  RH  093%=      5-min Rain = 0
KLA1 080304Z 32011KT 05/04 A3045 RMK A01 T00490039  RH  093%=      5-min Rain = 0
KLA1 080305Z 33009G15KT 05/04 A3045 RMK A01 T00480038  RH  093%=      5-min Rain = 0
KLA1 080306Z 32009KT 05/04 A3045 RMK A01 T00480038  RH  093%=      5-min Rain = 0
KLA1 080307Z 32010KT 05/04 A3045 RMK A01 T00480038  RH  093%=      5-min Rain = 0
KLA1 080308Z 33007KT 05/04 A3045 RMK A01 T00480038  RH  093%=      5-min Rain = 0
KLA1 080309Z 35006KT 05/04 A3045 RMK A01 T00490038  RH  093%=      5-min Rain = 0
KLA1 080310Z 35008KT 05/04 A3045 RMK A01 T00490038  RH  093%=      5-min Rain = 0
KLA1 080311Z 33007KT 05/04 A3045 RMK A01 T00480038  RH  093%=      5-min Rain = 0
KLA1 080312Z 33006KT 05/04 A3045 RMK A01 T00480038  RH  093%=      5-min Rain = 0
KLA1 080313Z 33006KT 05/04 A3044 RMK A01 T00480038  RH  093%=      5-min Rain = 0
KLA1 080314Z 34007KT 05/04 A3044 RMK A01 T00490039  RH  093%=      5-min Rain = 0
KLA1 080315Z 35012KT 05/04 A3044 RMK A01 T00480038  RH  093%=      5-min Rain = 0
KLA1 080316Z 34010KT 05/04 A3044 RMK A01 T00480037  RH  092%=      5-min Rain = 0
KLA1 080317Z 34010KT 05/04 A3044 RMK A01 T00480036  RH  092%=      5-min Rain = 0
KLA1 080318Z 34007KT 05/04 A3044 RMK A01 T00480036  RH  092%=      5-min Rain = 0
KLA1 080319Z 33007KT 05/04 A3044 RMK A01 T00490037  RH  092%=      5-min Rain = 0
KLA1 080320Z 32008KT 05/04 A3044 RMK A01 T00490037  RH  092%=      5-min Rain = 0
KLA1 080321Z 34008KT 05/04 A3044 RMK A01 T00490037  RH  092%=      5-min Rain = 0
KLA1 080322Z 32008G13KT 05/04 A3044 RMK A01 T00490036  RH  091%=      5-min Rain = 0
KLA1 080323Z 33009KT 05/04 A3045 RMK A01 T00490036  RH  091%=      5-min Rain = 0
KLA1 080324Z 33009KT 05/04 A3045 RMK A01 T00490036  RH  091%=      5-min Rain = 0
KLA1 080325Z 34008KT 05/04 A3045 RMK A01 T00490036  RH  091%=      5-min Rain = 0
KLA1 080326Z 33008KT 05/04 A3045 RMK A01 T00490036  RH  091%=      5-min Rain = 0
KLA1 080327Z 32008KT 05/04 A3044 RMK A01 T00490036  RH  091%=      5-min Rain = 0
KLA1 080328Z 33008KT 05/04 A3044 RMK A01 T00490036  RH  091%=      5-min Rain = 0
KLA1 080329Z 34009KT 05/04 A3044 RMK A01 T00490036  RH  091%=      5-min Rain = 0
KLA1 080330Z 34009KT 05/04 A3044 RMK A01 T00490035  RH  091%=      5-min Rain = 0
KLA1 080331Z 34010KT 05/04 A3044 RMK A01 T00500036  RH  091%=      5-min Rain = 0
KLA1 080332Z 34010KT 05/04 A3045 RMK A01 T00500036  RH  091%=      5-min Rain = 0
KLA1 080333Z 33010KT 05/04 A3045 RMK A01 T00490036  RH  091%=      5-min Rain = 0
KLA1 080334Z 33009KT 05/04 A3045 RMK A01 T00500036  RH  091%=      5-min Rain = 0
KLA1 080335Z 34007KT 05/04 A3045 RMK A01 T00500037  RH  092%=      5-min Rain = 0
KLA1 080336Z 34009KT 05/04 A3044 RMK A01 T00490037  RH  092%=      5-min Rain = 0
KLA1 080337Z 33007KT 05/04 A3044 RMK A01 T00490037  RH  092%=      5-min Rain = 0
KLA1 080338Z 33008KT 05/04 A3044 RMK A01 T00490037  RH  092%=      5-min Rain = 0
KLA1 080339Z 34009KT 05/04 A3044 RMK A01 T00490038  RH  093%=      5-min Rain = 0
KLA1 080340Z 35010KT 05/04 A3044 RMK A01 T00490038  RH  093%=      5-min Rain = 0
KLA1 080341Z 34010KT 05/04 A3044 RMK A01 T00490038  RH  093%=      5-min Rain = 0
KLA1 080342Z 33009KT 05/04 A3044 RMK A01 T00490038  RH  093%=      5-min Rain = 0
KLA1 080343Z 34009KT 05/04 A3044 RMK A01 T00490038  RH  093%=      5-min Rain = 0
KLA1 080344Z 34008KT 05/04 A3045 RMK A01 T00490038  RH  093%=      5-min Rain = 0
KLA1 080345Z 33006KT 05/04 A3045 RMK A01 T00490038  RH  093%=      5-min Rain = 0
KLA1 080346Z 33008KT 05/04 A3045 RMK A01 T00490039  RH  093%=      5-min Rain = 0
KLA1 080347Z 33008KT 05/04 A3044 RMK A01 T00490039  RH  093%=      5-min Rain = 0
KLA1 080348Z 33007KT 05/04 A3044 RMK A01 T00490038  RH  093%=      5-min Rain = 0
KLA1 080349Z 33007KT 05/04 A3044 RMK A01 T00490039  RH  093%=      5-min Rain = 0
KLA1 080350Z 32009KT 05/04 A3044 RMK A01 T00490039  RH  093%=      5-min Rain = 0
KLA1 080351Z 34009KT 05/04 A3044 RMK A01 T00490039  RH  093%=      5-min Rain = 0
KLA1 080352Z 34007KT 05/04 A3044 RMK A01 T00490038  RH  093%=      5-min Rain = 0
KLA1 080353Z 32009KT 05/04 A3045 RMK A01 T00490038  RH  093%=      5-min Rain = 0
KLA1 080354Z 33008KT 05/04 A3045 RMK A01 T00490038  RH  093%=      5-min Rain = 0
KLA1 080355Z 33009KT 05/04 A3045 RMK A01 T00490038  RH  093%=      5-min Rain = 0
KLA1 080356Z 32010KT 05/04 A3045 RMK A01 T00490038  RH  093%=      5-min Rain = 0
KLA1 080357Z 33008KT 05/04 A3045 RMK A01 T00490038  RH  092%=      5-min Rain = 0
KLA1 080358Z 33008G13KT 05/04 A3045 RMK A01 T00490038  RH  092%=      5-min Rain = 0
KLA1 080359Z 32008KT 05/04 A3045 RMK A01 T00490038  RH  092%=      5-min Rain = 0
KLA1 080400Z 33008KT 05/04 A3045 RMK A01 T00490038  RH  092%=      5-min Rain = 0
KLA1 080401Z 35008KT 05/04 A3045 RMK A01 T00490037  RH  092%=      5-min Rain = 0
KLA1 080402Z 35007KT 05/04 A3045 RMK A01 T00490038  RH  092%=      5-min Rain = 0
KLA1 080403Z 34007KT 05/04 A3044 RMK A01 T00490038  RH  092%=      5-min Rain = 0
KLA1 080404Z 34009G14KT 05/04 A3044 RMK A01 T00490038  RH  092%=      5-min Rain = 0
KLA1 080405Z 34008KT 05/04 A3044 RMK A01 T00490038  RH  092%=      5-min Rain = 0
KLA1 080406Z 34008KT 05/04 A3044 RMK A01 T00490038  RH  092%=      5-min Rain = 0
KLA1 080407Z 35008KT 05/04 A3044 RMK A01 T00490038  RH  093%=      5-min Rain = 0
KLA1 080408Z 35005KT 05/04 A3044 RMK A01 T00490038  RH  093%=      5-min Rain = 0
KLA1 080409Z 35011KT 05/04 A3044 RMK A01 T00490039  RH  093%=      5-min Rain = 0
KLA1 080410Z 34009KT 05/04 A3044 RMK A01 T00490038  RH  093%=      5-min Rain = 0
KLA1 080411Z 35008KT 05/04 A3044 RMK A01 T00480038  RH  093%=      5-min Rain = 0
KLA1 080412Z 34009KT 05/04 A3044 RMK A01 T00490039  RH  093%=      5-min Rain = 0
KLA1 080413Z 34009KT 05/04 A3044 RMK A01 T00480039  RH  094%=      5-min Rain = 0
KLA1 080414Z 35010KT 05/04 A3044 RMK A01 T00480039  RH  094%=      5-min Rain = 0
KLA1 080415Z 35009KT 05/04 A3044 RMK A01 T00480039  RH  094%=      5-min Rain = 0
KLA1 080416Z 34008G14KT 05/04 A3044 RMK A01 T00480039  RH  094%=      5-min Rain = 0
KLA1 080417Z 34008KT 05/04 A3044 RMK A01 T00480040  RH  094%=      5-min Rain = 0
KLA1 080418Z 33007KT 05/04 A3044 RMK A01 T00490040  RH  094%=      5-min Rain = 0
KLA1 080419Z 34007KT 05/04 A3044 RMK A01 T00480040  RH  094%=      5-min Rain = 0
KLA1 080420Z 33007KT 05/04 A3044 RMK A01 T00480039  RH  094%=      5-min Rain = 0
KLA1 080421Z 33004KT 05/04 A3045 RMK A01 T00480039  RH  094%=      5-min Rain = 0
KLA1 080422Z 35006KT 05/04 A3045 RMK A01 T00480040  RH  094%=      5-min Rain = 0
KLA1 080423Z 34007KT 05/04 A3044 RMK A01 T00480040  RH  094%=      5-min Rain = 0
KLA1 080424Z 35007KT 05/04 A3044 RMK A01 T00480040  RH  094%=      5-min Rain = 0
KLA1 080425Z 35008G13KT 05/04 A3044 RMK A01 T00480040  RH  095%=      5-min Rain = 0
KLA1 080426Z 35009G14KT 05/04 A3044 RMK A01 T00480040  RH  094%=      5-min Rain = 0
KLA1 080427Z 33006KT 05/04 A3044 RMK A01 T00480039  RH  094%=      5-min Rain = 0
KLA1 080428Z 35006G11KT 05/04 A3044 RMK A01 T00480039  RH  094%=      5-min Rain = 0
KLA1 080429Z 34008KT 05/04 A3044 RMK A01 T00480038  RH  094%=      5-min Rain = 0
KLA1 080430Z 35006KT 05/04 A3044 RMK A01 T00480038  RH  093%=      5-min Rain = 0
KLA1 080431Z 36008G13KT 05/04 A3044 RMK A01 T00480038  RH  093%=      5-min Rain = 0
KLA1 080432Z 35009KT 05/04 A3044 RMK A01 T00480038  RH  093%=      5-min Rain = 0
KLA1 080433Z 35006KT 05/04 A3044 RMK A01 T00480037  RH  093%=      5-min Rain = 0
KLA1 080434Z 36007G13KT 05/04 A3044 RMK A01 T00480038  RH  093%=      5-min Rain = 0
KLA1 080435Z 35006KT 05/04 A3045 RMK A01 T00480037  RH  093%=      5-min Rain = 0
KLA1 080436Z 35004KT 05/04 A3045 RMK A01 T00480037  RH  093%=      5-min Rain = 0
KLA1 080437Z 00003KT 05/04 A3045 RMK A01 T00480037  RH  093%=      5-min Rain = 0
KLA1 080438Z 35004KT 05/04 A3045 RMK A01 T00480038  RH  093%=      5-min Rain = 0
KLA1 080439Z 34004KT 05/04 A3045 RMK A01 T00490038  RH  093%=      5-min Rain = 0
KLA1 080440Z 33004KT 05/04 A3046 RMK A01 T00490038  RH  093%=      5-min Rain = 0
KLA1 080441Z 35005KT 05/04 A3046 RMK A01 T00480037  RH  092%=      5-min Rain = 0
KLA1 080442Z 35006KT 05/04 A3046 RMK A01 T00480036  RH  092%=      5-min Rain = 0
KLA1 080443Z 34007KT 05/04 A3046 RMK A01 T00480036  RH  091%=      5-min Rain = 0
KLA1 080444Z 35005KT 05/04 A3046 RMK A01 T00480036  RH  091%=      5-min Rain = 0
KLA1 080445Z 33004KT 05/04 A3046 RMK A01 T00490036  RH  092%=      5-min Rain = 0
KLA1 080446Z 35006KT 05/04 A3046 RMK A01 T00490036  RH  092%=      5-min Rain = 0
KLA1 080447Z 32006KT 05/04 A3046 RMK A01 T00490036  RH  091%=      5-min Rain = 0
KLA1 080448Z 33006KT 05/04 A3046 RMK A01 T00480035  RH  091%=      5-min Rain = 0
KLA1 080449Z 32004KT 05/04 A3046 RMK A01 T00490036  RH  091%=      5-min Rain = 0
KLA1 080450Z 33004KT 05/04 A3046 RMK A01 T00490036  RH  092%=      5-min Rain = 0
KLA1 080451Z 31004KT 05/04 A3046 RMK A01 T00490036  RH  092%=      5-min Rain = 0
KLA1 080452Z 33004KT 05/04 A3046 RMK A01 T00480036  RH  092%=      5-min Rain = 0
KLA1 080453Z 34005KT 05/04 A3046 RMK A01 T00490037  RH  092%=      5-min Rain = 0
KLA1 080454Z 34004KT 05/04 A3046 RMK A01 T00490037  RH  092%=      5-min Rain = 0
KLA1 080455Z 35006KT 05/04 A3046 RMK A01 T00490037  RH  092%=      5-min Rain = 0
KLA1 080456Z 34007KT 05/04 A3045 RMK A01 T00490036  RH  092%=      5-min Rain = 0
KLA1 080457Z 34005KT 05/04 A3045 RMK A01 T00490035  RH  091%=      5-min Rain = 0
KLA1 080458Z 35006KT 05/04 A3045 RMK A01 T00480036  RH  092%=      5-min Rain = 0
KLA1 080459Z 33005KT 05/04 A3045 RMK A01 T00480036  RH  092%=      5-min Rain = 0
KLA1 080500Z 35007KT 05/04 A3045 RMK A01 T00480036  RH  092%=      5-min Rain = 0
KLA1 080501Z 34007KT 05/04 A3045 RMK A01 T00480036  RH  092%=      5-min Rain = 0
KLA1 080502Z 34006KT 05/04 A3045 RMK A01 T00480036  RH  092%=      5-min Rain = 0
KLA1 080503Z 35007KT 05/04 A3045 RMK A01 T00490037  RH  092%=      5-min Rain = 0
KLA1 080504Z 33005KT 05/04 A3045 RMK A01 T00490037  RH  092%=      5-min Rain = 0
KLA1 080505Z 33005KT 05/04 A3045 RMK A01 T00490038  RH  093%=      5-min Rain = 0
KLA1 080506Z 34005KT 05/04 A3045 RMK A01 T00490038  RH  093%=      5-min Rain = 0
KLA1 080507Z 35006KT 05/04 A3045 RMK A01 T00490039  RH  093%=      5-min Rain = 0
KLA1 080508Z 35005G10KT 05/04 A3044 RMK A01 T00480039  RH  093%=      5-min Rain = 0
KLA1 080509Z 35007KT 05/04 A3044 RMK A01 T00480039  RH  094%=      5-min Rain = 0
KLA1 080510Z 34006KT 05/04 A3044 RMK A01 T00480040  RH  094%=      5-min Rain = 0
KLA1 080511Z 35007KT 05/04 A3044 RMK A01 T00490040  RH  094%=      5-min Rain = 0
KLA1 080512Z 33004KT 05/04 A3044 RMK A01 T00490041  RH  095%=      5-min Rain = 0
KLA1 080513Z 34003KT 05/04 A3044 RMK A01 T00480042  RH  095%=      5-min Rain = 0
KLA1 080514Z 34007KT 05/04 A3044 RMK A01 T00480042  RH  096%=      5-min Rain = 0
KLA1 080515Z 33007KT 05/04 A3044 RMK A01 T00480042  RH  096%=      5-min Rain = 0
KLA1 080516Z 33007KT 05/04 A3044 RMK A01 T00480042  RH  096%=      5-min Rain = 0
KLA1 080517Z 35009KT 05/04 A3044 RMK A01 T00480042  RH  096%=      5-min Rain = 0
KLA1 080518Z 35008KT 05/04 A3044 RMK A01 T00470041  RH  096%=      5-min Rain = 0
KLA1 080519Z 33004KT 05/04 A3044 RMK A01 T00470042  RH  096%=      5-min Rain = 0
KLA1 080520Z 33005KT 05/04 A3044 RMK A01 T00470043  RH  097%=      5-min Rain = 0
KLA1 080521Z 34005KT 05/04 A3044 RMK A01 T00470043  RH  097%=      5-min Rain = 0
KLA1 080522Z 33004KT 05/04 A3044 RMK A01 T00470043  RH  097%=      5-min Rain = 0
KLA1 080523Z 32004KT 05/04 A3044 RMK A01 T00470043  RH  097%=      5-min Rain = 0
KLA1 080524Z 33005KT 05/04 A3044 RMK A01 T00470044  RH  098%=      5-min Rain = 0
KLA1 080525Z 35006KT 05/04 A3044 RMK A01 T00470044  RH  098%=      5-min Rain = 0
KLA1 080526Z 35007KT 05/04 A3044 RMK A01 T00470043  RH  098%=      5-min Rain = 0
KLA1 080527Z 33005KT 05/04 A3044 RMK A01 T00470043  RH  097%=      5-min Rain = 0
KLA1 080528Z 35007KT 05/04 A3044 RMK A01 T00470043  RH  097%=      5-min Rain = 0
KLA1 080529Z 34007KT 05/04 A3044 RMK A01 T00470043  RH  097%=      5-min Rain = 0
KLA1 080530Z 33007KT 05/04 A3044 RMK A01 T00470043  RH  097%=      5-min Rain = 0
KLA1 080531Z 32007KT 05/04 A3044 RMK A01 T00470043  RH  097%=      5-min Rain = 0
KLA1 080532Z 31006KT 05/04 A3045 RMK A01 T00470043  RH  097%=      5-min Rain = 0
KLA1 080533Z 32005KT 05/04 A3045 RMK A01 T00470043  RH  097%=      5-min Rain = 0
KLA1 080534Z 32010KT 05/04 A3045 RMK A01 T00470043  RH  097%=      5-min Rain = 0
KLA1 080535Z 31008G13KT 05/04 A3045 RMK A01 T00480043  RH  097%=      5-min Rain = 0
KLA1 080536Z 33005KT 05/04 A3045 RMK A01 T00480043  RH  097%=      5-min Rain = 0
KLA1 080537Z 31006G12KT 05/04 A3045 RMK A01 T00480043  RH  097%=      5-min Rain = 0
KLA1 080538Z 32006KT 05/04 A3045 RMK A01 T00480044  RH  097%=      5-min Rain = 0
KLA1 080539Z 33006G12KT 05/05 A3045 RMK A01 T00490045  RH  097%=      5-min Rain = 0
KLA1 080540Z 33006KT 05/04 A3045 RMK A01 T00480044  RH  097%=      5-min Rain = 0
KLA1 080541Z 32009KT 05/04 A3045 RMK A01 T00480044  RH  097%=      5-min Rain = 0
KLA1 080542Z 33006G11KT 05/04 A3045 RMK A01 T00480043  RH  097%=      5-min Rain = 0
KLA1 080543Z 34006KT 05/04 A3045 RMK A01 T00480043  RH  097%=      5-min Rain = 0
KLA1 080544Z 32010KT 05/04 A3045 RMK A01 T00480043  RH  097%=      5-min Rain = 0
KLA1 080545Z 34007KT 05/04 A3045 RMK A01 T00480043  RH  096%=      5-min Rain = 0
KLA1 080546Z 34005KT 05/04 A3045 RMK A01 T00480043  RH  097%=      5-min Rain = 0.01
KLA1 080547Z 33006KT 05/04 A3045 RMK A01 T00480044  RH  097%=      5-min Rain = 0
KLA1 080548Z 32007KT 05/04 A3045 RMK A01 T00480044  RH  097%=      5-min Rain = 0
KLA1 080549Z 32008KT 05/05 A3045 RMK A01 T00480045  RH  098%=      5-min Rain = 0
KLA1 080550Z 34006KT 05/04 A3045 RMK A01 T00480044  RH  098%=      5-min Rain = 0.02
KLA1 080551Z 34007KT 05/05 A3045 RMK A01 T00480045  RH  098%=      5-min Rain = 0
KLA1 080552Z 33004KT 05/05 A3045 RMK A01 T00480045  RH  099%=      5-min Rain = 0
KLA1 080553Z 32003KT 05/05 A3045 RMK A01 T00480046  RH  099%=      5-min Rain = 0
KLA1 080554Z 32003KT 05/05 A3045 RMK A01 T00480046  RH  099%=      5-min Rain = 0
KLA1 080555Z 32004KT 05/05 A3045 RMK A01 T00480047  RH  099%=      5-min Rain = 0
KLA1 080556Z 33004KT 05/05 A3045 RMK A01 T00470047  RH  100%=      5-min Rain = 0
KLA1 080557Z 35006KT 05/05 A3044 RMK A01 T00470047  RH  100%=      5-min Rain = 0
KLA1 080558Z 33008KT 05/05 A3044 RMK A01 T00470046  RH  099%=      5-min Rain = 0
KLA1 080559Z 32006KT 05/05 A3044 RMK A01 T00470046  RH  099%=      5-min Rain = 0

Page generated in 0.0781 seconds.